Time,TemperatureF,DewpointF,PressureIn,WindDirection,WindDirectionDegrees,WindSpeedMPH,WindSpeedGustMPH,Humidity,HourlyPrecipIn,Conditions,Clouds,dailyrainin,SoftwareType,DateUTC
2013-03-13 00:00:00,37.7,22.6,30.64,West,273,0.0,0.0,54,0.00,,SKC,0.00,VWS V14.01,2013-03-13 06:00:00,
2013-03-13 00:01:00,37.7,22.6,30.64,West,273,0.0,0.0,54,0.00,,SKC,0.00,VWS V14.01,2013-03-13 06:01:00,
2013-03-13 00:02:00,37.6,22.5,30.64,West,275,2.0,3.0,54,0.00,,SKC,0.00,VWS V14.01,2013-03-13 06:02:00,
2013-03-13 00:03:00,37.5,22.4,30.64,North,360,5.0,5.0,54,0.00,,SKC,0.00,VWS V14.01,2013-03-13 06:03:00,
2013-03-13 00:04:00,37.5,22.8,30.64,WNW,302,5.0,9.0,55,0.00,,SKC,0.00,VWS V14.01,2013-03-13 06:04:00,
2013-03-13 00:05:00,37.4,22.3,30.63,NW,304,0.0,5.0,54,0.00,,SKC,0.00,VWS V14.01,2013-03-13 06:05:00,
2013-03-13 00:06:00,37.4,22.3,30.63,NW,306,0.0,0.0,54,0.00,,SKC,0.00,VWS V14.01,2013-03-13 06:06:00,
2013-03-13 00:07:00,37.4,22.3,30.63,NW,306,0.0,0.0,54,0.00,,SKC,0.00,VWS V14.01,2013-03-13 06:07:00,
2013-03-13 00:08:00,37.4,22.7,30.64,North,360,0.0,0.0,55,0.00,,SKC,0.00,VWS V14.01,2013-03-13 06:08:00,
2013-03-13 00:09:00,37.3,22.6,30.64,NW,304,0.0,1.0,55,0.00,,SKC,0.00,VWS V14.01,2013-03-13 06:09:00,
2013-03-13 00:10:00,37.3,22.6,30.64,NW,304,0.0,0.0,55,0.00,,SKC,0.00,VWS V14.01,2013-03-13 06:10:00,
2013-03-13 00:11:00,37.3,22.6,30.64,NW,306,0.0,1.0,55,0.00,,SKC,0.00,VWS V14.01,2013-03-13 06:11:00,
2013-03-13 00:12:00,37.3,22.6,30.64,NW,306,0.0,1.0,55,0.00,,SKC,0.00,VWS V14.01,2013-03-13 06:12:00,
2013-03-13 00:13:00,37.2,22.5,30.64,NW,309,2.0,3.0,55,0.00,,SKC,0.00,VWS V14.01,2013-03-13 06:13:00,
2013-03-13 00:14:00,37.3,22.2,30.64,WNW,303,2.0,4.0,54,0.00,,SKC,0.00,VWS V14.01,2013-03-13 06:14:00,
2013-03-13 00:15:00,37.2,22.1,30.64,NW,304,2.0,2.0,54,0.00,,SKC,0.00,VWS V14.01,2013-03-13 06:15:00,
2013-03-13 00:16:00,37.2,22.1,30.64,NW,306,0.0,2.0,54,0.00,,SKC,0.00,VWS V14.01,2013-03-13 06:16:00,
2013-03-13 00:17:00,37.2,22.1,30.63,North,360,0.0,1.0,54,0.00,,SKC,0.00,VWS V14.01,2013-03-13 06:17:00,
2013-03-13 00:18:00,37.2,22.1,30.63,North,360,0.0,1.0,54,0.00,,SKC,0.00,VWS V14.01,2013-03-13 06:18:00,
2013-03-13 00:19:00,37.2,22.5,30.63,NW,307,0.0,0.0,55,0.00,,SKC,0.00,VWS V14.01,2013-03-13 06:19:00,
2013-03-13 00:20:00,37.2,22.5,30.63,NW,310,2.0,4.0,55,0.00,,SKC,0.00,VWS V14.01,2013-03-13 06:20:00,
2013-03-13 00:21:00,37.1,22.4,30.63,NW,307,0.0,2.0,55,0.00,,SKC,0.00,VWS V14.01,2013-03-13 06:21:00,
2013-03-13 00:22:00,37.1,22.4,30.64,NW,308,0.0,1.0,55,0.00,,SKC,0.00,VWS V14.01,2013-03-13 06:22:00,
2013-03-13 00:23:00,37.1,22.4,30.64,NW,308,0.0,1.0,55,0.00,,SKC,0.00,VWS V14.01,2013-03-13 06:23:00,
2013-03-13 00:24:00,37.1,22.4,30.64,NW,306,2.0,2.0,55,0.00,,SKC,0.00,VWS V14.01,2013-03-13 06:24:00,
2013-03-13 00:25:00,37.1,22.9,30.64,WNW,300,1.0,2.0,56,0.00,,SKC,0.00,VWS V14.01,2013-03-13 06:25:00,
2013-03-13 00:26:00,37.1,22.9,30.64,NW,307,1.0,1.0,56,0.00,,SKC,0.00,VWS V14.01,2013-03-13 06:26:00,
2013-03-13 00:27:00,37.0,22.4,30.64,NW,306,1.0,2.0,55,0.00,,SKC,0.00,VWS V14.01,2013-03-13 06:27:00,
2013-03-13 00:28:00,37.0,22.4,30.64,NW,305,0.0,1.0,55,0.00,,SKC,0.00,VWS V14.01,2013-03-13 06:28:00,
2013-03-13 00:29:00,37.0,22.4,30.64,NW,305,0.0,1.0,55,0.00,,SKC,0.00,VWS V14.01,2013-03-13 06:29:00,
2013-03-13 00:30:00,37.0,22.4,30.64,NW,308,0.0,0.0,55,0.00,,SKC,0.00,VWS V14.01,2013-03-13 06:30:00,
2013-03-13 00:31:00,37.0,21.9,30.64,NW,305,0.0,0.0,54,0.00,,SKC,0.00,VWS V14.01,2013-03-13 06:31:00,
2013-03-13 00:32:00,37.0,22.4,30.64,NW,309,3.0,3.0,55,0.00,,SKC,0.00,VWS V14.01,2013-03-13 06:32:00,
2013-03-13 00:33:00,37.0,22.4,30.64,NW,311,5.0,5.0,55,0.00,,SKC,0.00,VWS V14.01,2013-03-13 06:33:00,
2013-03-13 00:34:00,37.0,22.4,30.64,NW,311,5.0,5.0,55,0.00,,SKC,0.00,VWS V14.01,2013-03-13 06:34:00,
2013-03-13 00:35:00,37.1,22.0,30.64,NW,309,4.0,4.0,54,0.00,,SKC,0.00,VWS V14.01,2013-03-13 06:35:00,
2013-03-13 00:36:00,37.2,22.1,30.64,NW,306,3.0,4.0,54,0.00,,SKC,0.00,VWS V14.01,2013-03-13 06:36:00,
2013-03-13 00:37:00,37.3,22.6,30.63,NW,312,10.0,10.0,55,0.00,,SKC,0.00,VWS V14.01,2013-03-13 06:37:00,
2013-03-13 00:38:00,37.3,22.6,30.63,North,360,4.0,10.0,55,0.00,,SKC,0.00,VWS V14.01,2013-03-13 06:38:00,
2013-03-13 00:39:00,37.3,22.6,30.63,North,360,4.0,10.0,55,0.00,,SKC,0.00,VWS V14.01,2013-03-13 06:39:00,
2013-03-13 00:40:00,37.4,22.7,30.63,SSW,213,10.0,13.0,55,0.00,,SKC,0.00,VWS V14.01,2013-03-13 06:40:00,
2013-03-13 00:41:00,37.5,22.8,30.63,SSW,211,5.0,10.0,55,0.00,,SKC,0.00,VWS V14.01,2013-03-13 06:41:00,
2013-03-13 00:42:00,37.6,22.0,30.63,West,276,5.0,7.0,53,0.00,,SKC,0.00,VWS V14.01,2013-03-13 06:42:00,
2013-03-13 00:43:00,37.7,22.6,30.63,West,263,9.0,9.0,54,0.00,,SKC,0.00,VWS V14.01,2013-03-13 06:43:00,
2013-03-13 00:44:00,37.8,22.2,30.63,SW,231,7.0,9.0,53,0.00,,SKC,0.00,VWS V14.01,2013-03-13 06:44:00,
2013-03-13 00:45:00,37.8,22.2,30.63,SW,231,7.0,9.0,53,0.00,,SKC,0.00,VWS V14.01,2013-03-13 06:45:00,
2013-03-13 00:46:00,38.0,22.4,30.63,WNW,298,4.0,10.0,53,0.00,,SKC,0.00,VWS V14.01,2013-03-13 06:46:00,
2013-03-13 00:47:00,38.0,22.9,30.63,West,275,7.0,8.0,54,0.00,,SKC,0.00,VWS V14.01,2013-03-13 06:47:00,
2013-03-13 00:48:00,38.0,22.4,30.64,West,271,6.0,7.0,53,0.00,,SKC,0.00,VWS V14.01,2013-03-13 06:48:00,
2013-03-13 00:49:00,38.0,22.4,30.64,WSW,250,6.0,7.0,53,0.00,,SKC,0.00,VWS V14.01,2013-03-13 06:49:00,
2013-03-13 00:50:00,38.0,22.4,30.64,WSW,250,6.0,7.0,53,0.00,,SKC,0.00,VWS V14.01,2013-03-13 06:50:00,
2013-03-13 00:51:00,38.0,22.9,30.63,WSW,240,10.0,10.0,54,0.00,,SKC,0.00,VWS V14.01,2013-03-13 06:51:00,
2013-03-13 00:52:00,38.0,22.4,30.63,SW,225,13.0,15.0,53,0.00,,SKC,0.00,VWS V14.01,2013-03-13 06:52:00,
2013-03-13 00:53:00,38.0,22.4,30.63,West,268,13.0,13.0,53,0.00,,SKC,0.00,VWS V14.01,2013-03-13 06:53:00,
2013-03-13 00:54:00,38.0,22.4,30.63,West,281,6.0,14.0,53,0.00,,SKC,0.00,VWS V14.01,2013-03-13 06:54:00,
2013-03-13 00:55:00,38.0,22.4,30.63,West,281,6.0,14.0,53,0.00,,SKC,0.00,VWS V14.01,2013-03-13 06:55:00,
2013-03-13 00:56:00,38.1,22.9,30.63,North,360,15.0,15.0,54,0.00,,SKC,0.00,VWS V14.01,2013-03-13 06:56:00,
2013-03-13 00:57:00,38.1,22.5,30.64,WSW,246,8.0,15.0,53,0.00,,SKC,0.00,VWS V14.01,2013-03-13 06:57:00,
2013-03-13 00:58:00,38.2,22.1,30.64,SSW,196,7.0,11.0,52,0.00,,SKC,0.00,VWS V14.01,2013-03-13 06:58:00,
2013-03-13 00:59:00,38.3,22.2,30.63,North,360,4.0,10.0,52,0.00,,SKC,0.00,VWS V14.01,2013-03-13 06:59:00,
2013-03-13 01:00:00,38.4,21.9,30.63,North,360,12.0,13.0,51,0.00,,SKC,0.00,VWS V14.01,2013-03-13 07:00:00,
2013-03-13 01:01:00,38.4,21.9,30.63,North,360,12.0,13.0,51,0.00,,SKC,0.00,VWS V14.01,2013-03-13 07:01:00,
2013-03-13 01:02:00,38.7,22.1,30.63,SW,230,13.0,21.0,51,0.00,,SKC,0.00,VWS V14.01,2013-03-13 07:02:00,
2013-03-13 01:03:00,38.9,21.9,30.63,West,261,8.0,14.0,50,0.00,,SKC,0.00,VWS V14.01,2013-03-13 07:03:00,
2013-03-13 01:04:00,39.0,22.4,30.63,West,274,14.0,14.0,51,0.00,,SKC,0.00,VWS V14.01,2013-03-13 07:04:00,
2013-03-13 01:05:00,39.1,22.5,30.63,WSW,237,10.0,14.0,51,0.00,,SKC,0.00,VWS V14.01,2013-03-13 07:05:00,
2013-03-13 01:06:00,39.2,22.6,30.63,North,360,6.0,11.0,51,0.00,,SKC,0.00,VWS V14.01,2013-03-13 07:06:00,
2013-03-13 01:07:00,39.2,22.6,30.63,North,360,6.0,11.0,51,0.00,,SKC,0.00,VWS V14.01,2013-03-13 07:07:00,
2013-03-13 01:08:00,39.2,22.6,30.62,SW,225,5.0,6.0,51,0.00,,SKC,0.00,VWS V14.01,2013-03-13 07:08:00,
2013-03-13 01:09:00,39.2,22.6,30.62,West,277,10.0,11.0,51,0.00,,SKC,0.00,VWS V14.01,2013-03-13 07:09:00,
2013-03-13 01:10:00,39.2,22.1,30.62,West,265,9.0,13.0,50,0.00,,SKC,0.00,VWS V14.01,2013-03-13 07:10:00,
2013-03-13 01:11:00,39.2,22.6,30.63,North,360,12.0,12.0,51,0.00,,SKC,0.00,VWS V14.01,2013-03-13 07:11:00,
2013-03-13 01:12:00,39.1,22.5,30.63,WNW,293,10.0,12.0,51,0.00,,SKC,0.00,VWS V14.01,2013-03-13 07:12:00,
2013-03-13 01:13:00,39.1,22.5,30.63,WNW,293,10.0,12.0,51,0.00,,SKC,0.00,VWS V14.01,2013-03-13 07:13:00,
2013-03-13 01:14:00,39.0,22.4,30.63,SW,233,5.0,10.0,51,0.00,,SKC,0.00,VWS V14.01,2013-03-13 07:14:00,
2013-03-13 01:15:00,39.0,22.4,30.63,West,277,6.0,6.0,51,0.00,,SKC,0.00,VWS V14.01,2013-03-13 07:15:00,
2013-03-13 01:16:00,38.9,22.8,30.63,WSW,240,12.0,13.0,52,0.00,,SKC,0.00,VWS V14.01,2013-03-13 07:16:00,
2013-03-13 01:17:00,38.9,22.8,30.63,West,280,10.0,14.0,52,0.00,,SKC,0.00,VWS V14.01,2013-03-13 07:17:00,
2013-03-13 01:18:00,38.9,22.8,30.63,West,280,10.0,14.0,52,0.00,,SKC,0.00,VWS V14.01,2013-03-13 07:18:00,
2013-03-13 01:19:00,38.9,21.9,30.62,North,360,10.0,14.0,50,0.00,,SKC,0.00,VWS V14.01,2013-03-13 07:19:00,
2013-03-13 01:20:00,39.0,22.0,30.63,West,265,10.0,12.0,50,0.00,,SKC,0.00,VWS V14.01,2013-03-13 07:20:00,
2013-03-13 01:21:00,39.1,22.0,30.63,SSW,206,5.0,17.0,50,0.00,,SKC,0.00,VWS V14.01,2013-03-13 07:21:00,
2013-03-13 01:22:00,39.1,22.0,30.63,WSW,246,6.0,11.0,50,0.00,,SKC,0.00,VWS V14.01,2013-03-13 07:22:00,
2013-03-13 01:23:00,39.2,22.1,30.63,SW,227,7.0,12.0,50,0.00,,SKC,0.00,VWS V14.01,2013-03-13 07:23:00,
2013-03-13 01:24:00,39.2,22.1,30.63,SW,227,7.0,12.0,50,0.00,,SKC,0.00,VWS V14.01,2013-03-13 07:24:00,
2013-03-13 01:25:00,39.2,22.1,30.63,West,261,7.0,8.0,50,0.00,,SKC,0.00,VWS V14.01,2013-03-13 07:25:00,
2013-03-13 01:26:00,39.2,22.1,30.63,WSW,255,6.0,7.0,50,0.00,,SKC,0.00,VWS V14.01,2013-03-13 07:26:00,
2013-03-13 01:27:00,39.1,22.0,30.63,WSW,253,4.0,6.0,50,0.00,,SKC,0.00,VWS V14.01,2013-03-13 07:27:00,
2013-03-13 01:28:00,39.1,22.0,30.63,WSW,247,4.0,4.0,50,0.00,,SKC,0.00,VWS V14.01,2013-03-13 07:28:00,
2013-03-13 01:29:00,39.1,22.0,30.63,WSW,247,4.0,4.0,50,0.00,,SKC,0.00,VWS V14.01,2013-03-13 07:29:00,
2013-03-13 01:30:00,39.0,22.0,30.63,West,268,0.0,4.0,50,0.00,,SKC,0.00,VWS V14.01,2013-03-13 07:30:00,
2013-03-13 01:31:00,38.9,21.9,30.63,SSW,193,2.0,9.0,50,0.00,,SKC,0.00,VWS V14.01,2013-03-13 07:31:00,
2013-03-13 01:32:00,38.9,21.9,30.62,West,270,0.0,4.0,50,0.00,,SKC,0.00,VWS V14.01,2013-03-13 07:32:00,
2013-03-13 01:33:00,38.8,22.2,30.62,West,273,0.0,0.0,51,0.00,,SKC,0.00,VWS V14.01,2013-03-13 07:33:00,
2013-03-13 01:34:00,38.8,22.2,30.62,West,273,0.0,0.0,51,0.00,,SKC,0.00,VWS V14.01,2013-03-13 07:34:00,
2013-03-13 01:35:00,38.6,21.6,30.62,West,277,5.0,5.0,50,0.00,,SKC,0.00,VWS V14.01,2013-03-13 07:35:00,
2013-03-13 01:36:00,38.6,21.6,30.62,NW,315,7.0,9.0,50,0.00,,SKC,0.00,VWS V14.01,2013-03-13 07:36:00,
2013-03-13 01:37:00,38.5,21.5,30.62,NW,304,5.0,13.0,50,0.00,,SKC,0.00,VWS V14.01,2013-03-13 07:37:00,
2013-03-13 01:38:00,38.5,21.5,30.62,North,360,4.0,5.0,50,0.00,,SKC,0.00,VWS V14.01,2013-03-13 07:38:00,
2013-03-13 01:39:00,38.5,21.5,30.62,North,360,4.0,5.0,50,0.00,,SKC,0.00,VWS V14.01,2013-03-13 07:39:00,
2013-03-13 01:40:00,38.6,21.6,30.62,WNW,303,2.0,5.0,50,0.00,,SKC,0.00,VWS V14.01,2013-03-13 07:40:00,
2013-03-13 01:41:00,38.6,21.6,30.61,WNW,290,5.0,5.0,50,0.00,,SKC,0.00,VWS V14.01,2013-03-13 07:41:00,
2013-03-13 01:42:00,38.5,21.5,30.62,North,360,8.0,9.0,50,0.00,,SKC,0.00,VWS V14.01,2013-03-13 07:42:00,
2013-03-13 01:43:00,38.5,21.5,30.62,North,360,14.0,16.0,50,0.00,,SKC,0.00,VWS V14.01,2013-03-13 07:43:00,
2013-03-13 01:44:00,38.6,21.6,30.61,West,261,3.0,15.0,50,0.00,,SKC,0.00,VWS V14.01,2013-03-13 07:44:00,
2013-03-13 01:45:00,38.6,21.6,30.61,West,261,3.0,15.0,50,0.00,,SKC,0.00,VWS V14.01,2013-03-13 07:45:00,
2013-03-13 01:46:00,38.6,22.0,30.62,West,271,14.0,14.0,51,0.00,,SKC,0.00,VWS V14.01,2013-03-13 07:46:00,
2013-03-13 01:47:00,38.5,21.0,30.62,North,360,4.0,14.0,49,0.00,,SKC,0.00,VWS V14.01,2013-03-13 07:47:00,
2013-03-13 01:48:00,38.6,21.1,30.62,West,275,10.0,14.0,49,0.00,,SKC,0.00,VWS V14.01,2013-03-13 07:48:00,
2013-03-13 01:49:00,38.7,21.7,30.62,North,360,10.0,14.0,50,0.00,,SKC,0.00,VWS V14.01,2013-03-13 07:49:00,
2013-03-13 01:50:00,38.7,21.7,30.62,North,360,10.0,14.0,50,0.00,,SKC,0.00,VWS V14.01,2013-03-13 07:50:00,
2013-03-13 01:51:00,38.7,21.2,30.62,WSW,252,12.0,12.0,49,0.00,,SKC,0.00,VWS V14.01,2013-03-13 07:51:00,
2013-03-13 01:52:00,38.8,21.3,30.61,WSW,237,11.0,14.0,49,0.00,,SKC,0.00,VWS V14.01,2013-03-13 07:52:00,
2013-03-13 01:53:00,38.9,20.9,30.61,WSW,249,10.0,16.0,48,0.00,,SKC,0.00,VWS V14.01,2013-03-13 07:53:00,
2013-03-13 01:54:00,39.0,21.0,30.61,WSW,258,4.0,11.0,48,0.00,,SKC,0.00,VWS V14.01,2013-03-13 07:54:00,
2013-03-13 01:55:00,39.0,21.0,30.61,WSW,258,4.0,11.0,48,0.00,,SKC,0.00,VWS V14.01,2013-03-13 07:55:00,
2013-03-13 01:56:00,39.1,21.6,30.61,SW,227,6.0,7.0,49,0.00,,SKC,0.00,VWS V14.01,2013-03-13 07:56:00,
2013-03-13 01:57:00,39.1,21.6,30.61,North,360,6.0,14.0,49,0.00,,SKC,0.00,VWS V14.01,2013-03-13 07:57:00,
2013-03-13 01:58:00,39.1,21.6,30.61,West,269,6.0,21.0,49,0.00,,SKC,0.00,VWS V14.01,2013-03-13 07:58:00,
2013-03-13 01:59:00,39.1,21.6,30.61,North,360,6.0,7.0,49,0.00,,SKC,0.00,VWS V14.01,2013-03-13 07:59:00,
2013-03-13 02:00:00,39.1,21.6,30.61,North,360,6.0,7.0,49,0.00,,SKC,0.00,VWS V14.01,2013-03-13 08:00:00,
2013-03-13 02:01:00,39.0,21.5,30.61,West,267,9.0,11.0,49,0.00,,SKC,0.00,VWS V14.01,2013-03-13 08:01:00,
2013-03-13 02:02:00,38.9,21.4,30.61,NW,315,6.0,10.0,49,0.00,,SKC,0.00,VWS V14.01,2013-03-13 08:02:00,
2013-03-13 02:03:00,38.8,21.8,30.61,NW,313,0.0,6.0,50,0.00,,SKC,0.00,VWS V14.01,2013-03-13 08:03:00,
2013-03-13 02:04:00,38.7,21.7,30.61,NW,313,3.0,5.0,50,0.00,,SKC,0.00,VWS V14.01,2013-03-13 08:04:00,
2013-03-13 02:05:00,38.7,21.7,30.61,NW,313,3.0,5.0,50,0.00,,SKC,0.00,VWS V14.01,2013-03-13 08:05:00,
2013-03-13 02:06:00,38.4,21.4,30.61,WNW,296,5.0,11.0,50,0.00,,SKC,0.00,VWS V14.01,2013-03-13 08:06:00,
2013-03-13 02:07:00,38.3,21.3,30.61,North,360,6.0,6.0,50,0.00,,SKC,0.00,VWS V14.01,2013-03-13 08:07:00,
2013-03-13 02:08:00,38.2,21.7,30.61,WNW,295,4.0,6.0,51,0.00,,SKC,0.00,VWS V14.01,2013-03-13 08:08:00,
2013-03-13 02:09:00,38.1,21.6,30.61,North,360,6.0,10.0,51,0.00,,SKC,0.00,VWS V14.01,2013-03-13 08:09:00,
2013-03-13 02:10:00,38.1,21.6,30.61,North,360,6.0,10.0,51,0.00,,SKC,0.00,VWS V14.01,2013-03-13 08:10:00,
2013-03-13 02:11:00,38.2,20.7,30.60,SW,227,12.0,12.0,49,0.00,,SKC,0.00,VWS V14.01,2013-03-13 08:11:00,
2013-03-13 02:12:00,38.4,20.9,30.60,North,360,16.0,24.0,49,0.00,,SKC,0.00,VWS V14.01,2013-03-13 08:12:00,
2013-03-13 02:14:00,38.7,21.7,30.60,SW,231,13.0,19.0,50,0.00,,SKC,0.00,VWS V14.01,2013-03-13 08:14:00,
2013-03-13 02:15:00,38.7,21.7,30.60,SW,231,13.0,19.0,50,0.00,,SKC,0.00,VWS V14.01,2013-03-13 08:15:00,
2013-03-13 02:16:00,38.9,20.9,30.60,WSW,250,14.0,17.0,48,0.00,,SKC,0.00,VWS V14.01,2013-03-13 08:16:00,
2013-03-13 02:17:00,39.0,21.5,30.60,WSW,251,9.0,15.0,49,0.00,,SKC,0.00,VWS V14.01,2013-03-13 08:17:00,
2013-03-13 02:18:00,39.1,20.6,30.60,SW,235,8.0,12.0,47,0.00,,SKC,0.00,VWS V14.01,2013-03-13 08:18:00,
2013-03-13 02:19:00,39.2,21.2,30.59,WNW,293,6.0,10.0,48,0.00,,SKC,0.00,VWS V14.01,2013-03-13 08:19:00,
2013-03-13 02:20:00,39.3,21.8,30.60,North,360,7.0,10.0,49,0.00,,SKC,0.00,VWS V14.01,2013-03-13 08:20:00,
2013-03-13 02:21:00,39.3,21.8,30.60,North,360,7.0,10.0,49,0.00,,SKC,0.00,VWS V14.01,2013-03-13 08:21:00,
2013-03-13 02:22:00,39.3,21.3,30.59,North,360,28.0,28.0,48,0.00,,SKC,0.00,VWS V14.01,2013-03-13 08:22:00,
2013-03-13 02:23:00,39.4,21.4,30.59,North,360,18.0,28.0,48,0.00,,SKC,0.00,VWS V14.01,2013-03-13 08:23:00,
2013-03-13 02:24:00,39.5,21.0,30.60,West,281,12.0,18.0,47,0.00,,SKC,0.00,VWS V14.01,2013-03-13 08:24:00,
2013-03-13 02:25:00,39.6,21.5,30.60,WNW,283,21.0,22.0,48,0.00,,SKC,0.00,VWS V14.01,2013-03-13 08:25:00,
2013-03-13 02:26:00,39.7,21.6,30.59,WNW,290,21.0,31.0,48,0.00,,SKC,0.00,VWS V14.01,2013-03-13 08:26:00,
2013-03-13 02:27:00,39.7,21.6,30.59,WNW,290,21.0,31.0,48,0.00,,SKC,0.00,VWS V14.01,2013-03-13 08:27:00,
2013-03-13 02:28:00,39.9,21.3,30.59,NW,304,31.0,31.0,47,0.00,,SKC,0.00,VWS V14.01,2013-03-13 08:28:00,
2013-03-13 02:29:00,40.0,21.4,30.59,West,279,19.0,32.0,47,0.00,,SKC,0.00,VWS V14.01,2013-03-13 08:29:00,
2013-03-13 02:30:00,40.0,21.4,30.59,North,360,9.0,21.0,47,0.00,,SKC,0.00,VWS V14.01,2013-03-13 08:30:00,
2013-03-13 02:31:00,40.0,21.4,30.59,WNW,290,13.0,21.0,47,0.00,,SKC,0.00,VWS V14.01,2013-03-13 08:31:00,
2013-03-13 02:32:00,40.0,21.4,30.59,NW,311,17.0,19.0,47,0.00,,SKC,0.00,VWS V14.01,2013-03-13 08:32:00,
2013-03-13 02:33:00,40.0,21.4,30.59,NW,311,17.0,19.0,47,0.00,,SKC,0.00,VWS V14.01,2013-03-13 08:33:00,
2013-03-13 02:34:00,40.0,21.4,30.59,WNW,287,23.0,26.0,47,0.00,,SKC,0.00,VWS V14.01,2013-03-13 08:34:00,
2013-03-13 02:35:00,40.0,21.4,30.60,WSW,254,9.0,23.0,47,0.00,,SKC,0.00,VWS V14.01,2013-03-13 08:35:00,
2013-03-13 02:36:00,40.0,20.9,30.58,WSW,256,16.0,26.0,46,0.00,,SKC,0.00,VWS V14.01,2013-03-13 08:36:00,
2013-03-13 02:37:00,40.0,21.4,30.58,West,279,20.0,23.0,47,0.00,,SKC,0.00,VWS V14.01,2013-03-13 08:37:00,
2013-03-13 02:38:00,40.1,21.5,30.59,WSW,258,15.0,31.0,47,0.00,,SKC,0.00,VWS V14.01,2013-03-13 08:38:00,
2013-03-13 02:39:00,40.1,21.5,30.59,WSW,258,15.0,31.0,47,0.00,,SKC,0.00,VWS V14.01,2013-03-13 08:39:00,
2013-03-13 02:40:00,40.2,21.1,30.59,SW,233,13.0,31.0,46,0.00,,SKC,0.00,VWS V14.01,2013-03-13 08:40:00,
2013-03-13 02:41:00,40.4,20.8,30.58,WSW,243,19.0,20.0,45,0.00,,SKC,0.00,VWS V14.01,2013-03-13 08:41:00,
2013-03-13 02:42:00,40.4,21.3,30.58,North,360,19.0,22.0,46,0.00,,SKC,0.00,VWS V14.01,2013-03-13 08:42:00,
2013-03-13 02:43:00,40.5,21.4,30.59,WSW,241,17.0,27.0,46,0.00,,SKC,0.00,VWS V14.01,2013-03-13 08:43:00,
2013-03-13 02:44:00,40.5,21.4,30.59,WSW,241,17.0,27.0,46,0.00,,SKC,0.00,VWS V14.01,2013-03-13 08:44:00,
2013-03-13 02:45:00,40.5,21.9,30.58,West,268,14.0,29.0,47,0.00,,SKC,0.00,VWS V14.01,2013-03-13 08:45:00,
2013-03-13 02:46:00,40.5,21.4,30.59,WNW,286,10.0,17.0,46,0.00,,SKC,0.00,VWS V14.01,2013-03-13 08:46:00,
2013-03-13 02:47:00,40.4,21.3,30.59,NW,305,20.0,21.0,46,0.00,,SKC,0.00,VWS V14.01,2013-03-13 08:47:00,
2013-03-13 02:48:00,40.4,21.3,30.59,WNW,292,14.0,20.0,46,0.00,,SKC,0.00,VWS V14.01,2013-03-13 08:48:00,
2013-03-13 02:49:00,40.4,21.3,30.59,WNW,292,15.0,17.0,46,0.00,,SKC,0.00,VWS V14.01,2013-03-13 08:49:00,
2013-03-13 02:50:00,40.4,21.3,30.59,WNW,292,15.0,17.0,46,0.00,,SKC,0.00,VWS V14.01,2013-03-13 08:50:00,
2013-03-13 02:51:00,40.4,21.8,30.58,West,278,30.0,30.0,47,0.00,,SKC,0.00,VWS V14.01,2013-03-13 08:51:00,
2013-03-13 02:52:00,40.3,21.2,30.58,West,261,17.0,30.0,46,0.00,,SKC,0.00,VWS V14.01,2013-03-13 08:52:00,
2013-03-13 02:53:00,40.3,21.7,30.58,SW,223,16.0,26.0,47,0.00,,SKC,0.00,VWS V14.01,2013-03-13 08:53:00,
2013-03-13 02:54:00,40.2,21.6,30.57,West,269,22.0,27.0,47,0.00,,SKC,0.00,VWS V14.01,2013-03-13 08:54:00,
2013-03-13 02:55:00,40.2,21.1,30.57,North,360,26.0,29.0,46,0.00,,SKC,0.00,VWS V14.01,2013-03-13 08:55:00,
2013-03-13 02:56:00,40.2,21.1,30.57,North,360,26.0,29.0,46,0.00,,SKC,0.00,VWS V14.01,2013-03-13 08:56:00,
2013-03-13 02:57:00,40.3,21.7,30.58,WSW,254,21.0,27.0,47,0.00,,SKC,0.00,VWS V14.01,2013-03-13 08:57:00,
2013-03-13 02:58:00,40.3,21.7,30.58,West,266,15.0,21.0,47,0.00,,SKC,0.00,VWS V14.01,2013-03-13 08:58:00,
2013-03-13 02:59:00,40.2,21.6,30.58,WNW,300,16.0,25.0,47,0.00,,SKC,0.00,VWS V14.01,2013-03-13 08:59:00,
2013-03-13 03:00:00,40.1,21.0,30.58,WNW,290,21.0,21.0,46,0.00,,SKC,0.00,VWS V14.01,2013-03-13 09:00:00,
2013-03-13 03:01:00,40.1,21.0,30.58,WNW,290,21.0,21.0,46,0.00,,SKC,0.00,VWS V14.01,2013-03-13 09:01:00,
2013-03-13 03:02:00,40.1,21.5,30.57,West,273,12.0,17.0,47,0.00,,SKC,0.00,VWS V14.01,2013-03-13 09:02:00,
2013-03-13 03:03:00,40.1,21.0,30.58,WNW,293,12.0,23.0,46,0.00,,SKC,0.00,VWS V14.01,2013-03-13 09:03:00,
2013-03-13 03:04:00,40.1,21.5,30.58,North,360,24.0,26.0,47,0.00,,SKC,0.00,VWS V14.01,2013-03-13 09:04:00,
2013-03-13 03:05:00,40.1,21.5,30.58,West,281,13.0,25.0,47,0.00,,SKC,0.00,VWS V14.01,2013-03-13 09:05:00,
2013-03-13 03:06:00,40.0,21.4,30.57,WNW,292,19.0,22.0,47,0.00,,SKC,0.00,VWS V14.01,2013-03-13 09:06:00,
2013-03-13 03:07:00,40.0,21.4,30.57,WNW,292,19.0,22.0,47,0.00,,SKC,0.00,VWS V14.01,2013-03-13 09:07:00,
2013-03-13 03:08:00,40.0,21.4,30.58,North,360,14.0,27.0,47,0.00,,SKC,0.00,VWS V14.01,2013-03-13 09:08:00,
2013-03-13 03:09:00,40.0,21.4,30.58,WNW,295,25.0,25.0,47,0.00,,SKC,0.00,VWS V14.01,2013-03-13 09:09:00,
2013-03-13 03:10:00,40.0,21.4,30.58,West,264,25.0,30.0,47,0.00,,SKC,0.00,VWS V14.01,2013-03-13 09:10:00,
2013-03-13 03:11:00,40.0,21.4,30.58,North,360,18.0,31.0,47,0.00,,SKC,0.00,VWS V14.01,2013-03-13 09:11:00,
2013-03-13 03:12:00,40.1,21.5,30.58,NW,307,20.0,25.0,47,0.00,,SKC,0.00,VWS V14.01,2013-03-13 09:12:00,
2013-03-13 03:13:00,40.1,21.5,30.58,NW,307,20.0,25.0,47,0.00,,SKC,0.00,VWS V14.01,2013-03-13 09:13:00,
2013-03-13 03:14:00,40.1,21.5,30.58,NW,308,24.0,35.0,47,0.00,,SKC,0.00,VWS V14.01,2013-03-13 09:14:00,
2013-03-13 03:15:00,40.1,21.0,30.58,WNW,286,16.0,29.0,46,0.00,,SKC,0.00,VWS V14.01,2013-03-13 09:15:00,
2013-03-13 03:16:00,40.1,21.5,30.58,West,278,15.0,20.0,47,0.00,,SKC,0.00,VWS V14.01,2013-03-13 09:16:00,
2013-03-13 03:17:00,40.2,21.6,30.58,West,275,19.0,33.0,47,0.00,,SKC,0.00,VWS V14.01,2013-03-13 09:17:00,
2013-03-13 03:18:00,40.2,21.6,30.58,SW,232,9.0,22.0,47,0.00,,SKC,0.00,VWS V14.01,2013-03-13 09:18:00,
2013-03-13 03:19:00,40.2,21.6,30.58,SW,232,9.0,22.0,47,0.00,,SKC,0.00,VWS V14.01,2013-03-13 09:19:00,
2013-03-13 03:20:00,40.2,21.6,30.57,West,269,21.0,32.0,47,0.00,,SKC,0.00,VWS V14.01,2013-03-13 09:20:00,
2013-03-13 03:21:00,40.2,22.1,30.57,North,360,25.0,30.0,48,0.00,,SKC,0.00,VWS V14.01,2013-03-13 09:21:00,
2013-03-13 03:22:00,40.2,22.1,30.57,WNW,296,27.0,34.0,48,0.00,,SKC,0.00,VWS V14.01,2013-03-13 09:22:00,
2013-03-13 03:23:00,40.1,22.0,30.57,West,275,20.0,27.0,48,0.00,,SKC,0.00,VWS V14.01,2013-03-13 09:23:00,
2013-03-13 03:24:00,40.1,22.0,30.57,West,275,20.0,27.0,48,0.00,,SKC,0.00,VWS V14.01,2013-03-13 09:24:00,
2013-03-13 03:25:00,40.0,21.9,30.56,West,271,19.0,24.0,48,0.00,,SKC,0.00,VWS V14.01,2013-03-13 09:25:00,
2013-03-13 03:26:00,40.0,21.9,30.57,South,190,17.0,20.0,48,0.00,,SKC,0.00,VWS V14.01,2013-03-13 09:26:00,
2013-03-13 03:27:00,40.0,21.4,30.56,WSW,252,18.0,29.0,47,0.00,,SKC,0.00,VWS V14.01,2013-03-13 09:27:00,
2013-03-13 03:28:00,40.0,21.9,30.56,West,260,23.0,31.0,48,0.00,,SKC,0.00,VWS V14.01,2013-03-13 09:28:00,
2013-03-13 03:29:00,40.0,21.9,30.56,West,260,23.0,31.0,48,0.00,,SKC,0.00,VWS V14.01,2013-03-13 09:29:00,
2013-03-13 03:30:00,40.1,21.5,30.56,WSW,251,19.0,22.0,47,0.00,,SKC,0.00,VWS V14.01,2013-03-13 09:30:00,
2013-03-13 03:31:00,40.1,22.0,30.57,North,360,14.0,20.0,48,0.00,,SKC,0.00,VWS V14.01,2013-03-13 09:31:00,
2013-03-13 03:32:00,40.1,22.0,30.57,West,265,10.0,25.0,48,0.00,,SKC,0.00,VWS V14.01,2013-03-13 09:32:00,
2013-03-13 03:33:00,40.1,22.0,30.56,West,267,14.0,19.0,48,0.00,,SKC,0.00,VWS V14.01,2013-03-13 09:33:00,
2013-03-13 03:34:00,40.1,22.0,30.56,West,267,14.0,19.0,48,0.00,,SKC,0.00,VWS V14.01,2013-03-13 09:34:00,
2013-03-13 03:35:00,40.0,21.9,30.58,WNW,292,22.0,22.0,48,0.00,,SKC,0.00,VWS V14.01,2013-03-13 09:35:00,
2013-03-13 03:36:00,40.0,21.9,30.57,North,360,14.0,22.0,48,0.00,,SKC,0.00,VWS V14.01,2013-03-13 09:36:00,
2013-03-13 03:37:00,40.0,21.9,30.57,WNW,282,27.0,27.0,48,0.00,,SKC,0.00,VWS V14.01,2013-03-13 09:37:00,
2013-03-13 03:38:00,40.0,21.9,30.57,West,280,21.0,30.0,48,0.00,,SKC,0.00,VWS V14.01,2013-03-13 09:38:00,
2013-03-13 03:39:00,40.0,21.9,30.57,West,280,21.0,30.0,48,0.00,,SKC,0.00,VWS V14.01,2013-03-13 09:39:00,
2013-03-13 03:40:00,39.9,21.8,30.58,North,360,25.0,25.0,48,0.00,,SKC,0.00,VWS V14.01,2013-03-13 09:40:00,
2013-03-13 03:41:00,39.9,22.3,30.57,North,360,29.0,29.0,49,0.00,,SKC,0.00,VWS V14.01,2013-03-13 09:41:00,
2013-03-13 03:42:00,39.9,22.3,30.57,WNW,293,22.0,30.0,49,0.00,,SKC,0.00,VWS V14.01,2013-03-13 09:42:00,
2013-03-13 03:43:00,39.8,22.2,30.57,West,281,17.0,25.0,49,0.00,,SKC,0.00,VWS V14.01,2013-03-13 09:43:00,
2013-03-13 03:44:00,39.8,22.2,30.57,West,281,17.0,25.0,49,0.00,,SKC,0.00,VWS V14.01,2013-03-13 09:44:00,
2013-03-13 03:45:00,39.8,22.2,30.57,WNW,289,24.0,24.0,49,0.00,,SKC,0.00,VWS V14.01,2013-03-13 09:45:00,
2013-03-13 03:46:00,39.7,22.1,30.57,WNW,282,15.0,24.0,49,0.00,,SKC,0.00,VWS V14.01,2013-03-13 09:46:00,
2013-03-13 03:47:00,39.7,22.1,30.57,WNW,294,24.0,27.0,49,0.00,,SKC,0.00,VWS V14.01,2013-03-13 09:47:00,
2013-03-13 03:48:00,39.7,22.1,30.56,North,360,21.0,30.0,49,0.00,,SKC,0.00,VWS V14.01,2013-03-13 09:48:00,
2013-03-13 03:49:00,39.7,22.1,30.57,WNW,292,17.0,33.0,49,0.00,,SKC,0.00,VWS V14.01,2013-03-13 09:49:00,
2013-03-13 03:50:00,39.7,22.1,30.57,WNW,292,17.0,33.0,49,0.00,,SKC,0.00,VWS V14.01,2013-03-13 09:50:00,
2013-03-13 03:51:00,39.7,22.6,30.56,North,360,21.0,26.0,50,0.00,,SKC,0.00,VWS V14.01,2013-03-13 09:51:00,
2013-03-13 03:52:00,39.7,22.6,30.56,North,360,24.0,31.0,50,0.00,,SKC,0.00,VWS V14.01,2013-03-13 09:52:00,
2013-03-13 03:53:00,39.7,22.6,30.56,West,280,17.0,24.0,50,0.00,,SKC,0.00,VWS V14.01,2013-03-13 09:53:00,
2013-03-13 03:54:00,39.6,22.5,30.56,NW,312,22.0,27.0,50,0.00,,SKC,0.00,VWS V14.01,2013-03-13 09:54:00,
2013-03-13 03:55:00,39.6,22.5,30.56,NW,312,22.0,27.0,50,0.00,,SKC,0.00,VWS V14.01,2013-03-13 09:55:00,
2013-03-13 03:56:00,39.6,22.5,30.55,North,360,35.0,35.0,50,0.00,,SKC,0.00,VWS V14.01,2013-03-13 09:56:00,
2013-03-13 03:57:00,39.6,22.5,30.56,West,273,26.0,36.0,50,0.00,,SKC,0.00,VWS V14.01,2013-03-13 09:57:00,
2013-03-13 03:58:00,39.6,22.5,30.56,West,275,20.0,27.0,50,0.00,,SKC,0.00,VWS V14.01,2013-03-13 09:58:00,
2013-03-13 03:59:00,39.6,22.5,30.56,WNW,291,29.0,29.0,50,0.00,,SKC,0.00,VWS V14.01,2013-03-13 09:59:00,
2013-03-13 04:00:00,39.6,22.5,30.56,WNW,291,29.0,29.0,50,0.00,,SKC,0.00,VWS V14.01,2013-03-13 10:00:00,
2013-03-13 04:01:00,39.6,22.5,30.55,West,263,23.0,26.0,50,0.00,,SKC,0.00,VWS V14.01,2013-03-13 10:01:00,
2013-03-13 04:02:00,39.6,22.5,30.56,North,360,24.0,24.0,50,0.00,,SKC,0.00,VWS V14.01,2013-03-13 10:02:00,
2013-03-13 04:03:00,39.5,22.4,30.56,WNW,290,20.0,26.0,50,0.00,,SKC,0.00,VWS V14.01,2013-03-13 10:03:00,
2013-03-13 04:04:00,39.5,22.4,30.56,North,360,31.0,33.0,50,0.00,,SKC,0.00,VWS V14.01,2013-03-13 10:04:00,
2013-03-13 04:05:00,39.5,22.4,30.56,North,360,31.0,33.0,50,0.00,,SKC,0.00,VWS V14.01,2013-03-13 10:05:00,
2013-03-13 04:06:00,39.6,22.5,30.56,WSW,252,21.0,26.0,50,0.00,,SKC,0.00,VWS V14.01,2013-03-13 10:06:00,
2013-03-13 04:07:00,39.6,22.5,30.56,North,360,12.0,27.0,50,0.00,,SKC,0.00,VWS V14.01,2013-03-13 10:07:00,
2013-03-13 04:08:00,39.6,22.5,30.56,WSW,253,19.0,30.0,50,0.00,,SKC,0.00,VWS V14.01,2013-03-13 10:08:00,
2013-03-13 04:09:00,39.6,22.5,30.56,West,274,11.0,22.0,50,0.00,,SKC,0.00,VWS V14.01,2013-03-13 10:09:00,
2013-03-13 04:10:00,39.6,22.5,30.56,West,274,11.0,22.0,50,0.00,,SKC,0.00,VWS V14.01,2013-03-13 10:10:00,
2013-03-13 04:11:00,39.6,22.5,30.56,WNW,292,12.0,23.0,50,0.00,,SKC,0.00,VWS V14.01,2013-03-13 10:11:00,
2013-03-13 04:12:00,39.6,22.5,30.56,WNW,292,11.0,17.0,50,0.00,,SKC,0.00,VWS V14.01,2013-03-13 10:12:00,
2013-03-13 04:13:00,39.5,21.9,30.56,West,273,18.0,28.0,49,0.00,,SKC,0.00,VWS V14.01,2013-03-13 10:13:00,
2013-03-13 04:14:00,39.5,22.4,30.56,WNW,285,13.0,18.0,50,0.00,,SKC,0.00,VWS V14.01,2013-03-13 10:14:00,
2013-03-13 04:15:00,39.4,22.3,30.56,West,269,20.0,23.0,50,0.00,,SKC,0.00,VWS V14.01,2013-03-13 10:15:00,
2013-03-13 04:16:00,39.4,22.3,30.56,West,269,20.0,23.0,50,0.00,,SKC,0.00,VWS V14.01,2013-03-13 10:16:00,
2013-03-13 04:17:00,39.4,22.3,30.55,West,271,7.0,20.0,50,0.00,,SKC,0.00,VWS V14.01,2013-03-13 10:17:00,
2013-03-13 04:18:00,39.4,22.3,30.56,West,275,9.0,12.0,50,0.00,,SKC,0.00,VWS V14.01,2013-03-13 10:18:00,
2013-03-13 04:19:00,39.4,22.3,30.56,WNW,292,19.0,19.0,50,0.00,,SKC,0.00,VWS V14.01,2013-03-13 10:19:00,
2013-03-13 04:20:00,39.4,21.8,30.56,WNW,287,19.0,24.0,49,0.00,,SKC,0.00,VWS V14.01,2013-03-13 10:20:00,
2013-03-13 04:21:00,39.4,21.8,30.56,WNW,287,19.0,24.0,49,0.00,,SKC,0.00,VWS V14.01,2013-03-13 10:21:00,
2013-03-13 04:22:00,39.5,22.4,30.55,NW,306,14.0,22.0,50,0.00,,SKC,0.00,VWS V14.01,2013-03-13 10:22:00,
2013-03-13 04:23:00,39.5,22.4,30.55,North,360,13.0,22.0,50,0.00,,SKC,0.00,VWS V14.01,2013-03-13 10:23:00,
2013-03-13 04:24:00,39.5,22.4,30.56,WSW,258,12.0,18.0,50,0.00,,SKC,0.00,VWS V14.01,2013-03-13 10:24:00,
2013-03-13 04:25:00,39.5,22.4,30.56,West,270,10.0,14.0,50,0.00,,SKC,0.00,VWS V14.01,2013-03-13 10:25:00,
2013-03-13 04:27:00,39.4,22.3,30.56,WNW,283,11.0,15.0,50,0.00,,SKC,0.00,VWS V14.01,2013-03-13 10:27:00,
2013-03-13 04:34:00,39.4,22.3,30.55,WNW,292,18.0,21.0,50,0.00,,SKC,0.00,VWS V14.01,2013-03-13 10:34:00,
2013-03-13 04:40:00,39.7,22.1,30.55,WSW,243,12.0,15.0,49,0.00,,SKC,0.00,VWS V14.01,2013-03-13 10:40:00,
2013-03-13 04:45:00,39.6,22.5,30.55,West,277,20.0,20.0,50,0.00,,SKC,0.00,VWS V14.01,2013-03-13 10:45:00,
2013-03-13 04:50:00,39.5,22.9,30.55,WNW,292,15.0,26.0,51,0.00,,SKC,0.00,VWS V14.01,2013-03-13 10:50:00,
2013-03-13 04:55:00,39.6,22.5,30.54,NW,311,17.0,26.0,50,0.00,,SKC,0.00,VWS V14.01,2013-03-13 10:55:00,
2013-03-13 05:01:00,39.7,22.6,30.55,NW,307,14.0,23.0,50,0.00,,SKC,0.00,VWS V14.01,2013-03-13 11:01:00,
2013-03-13 05:07:00,39.7,22.6,30.55,NNW,332,13.0,23.0,50,0.00,,SKC,0.00,VWS V14.01,2013-03-13 11:07:00,
2013-03-13 05:12:00,39.6,22.5,30.54,North,360,23.0,29.0,50,0.00,,SKC,0.00,VWS V14.01,2013-03-13 11:12:00,
2013-03-13 05:18:00,39.4,22.8,30.54,NNW,337,13.0,16.0,51,0.00,,SKC,0.00,VWS V14.01,2013-03-13 11:18:00,
2013-03-13 05:23:00,39.3,22.7,30.54,North,360,14.0,22.0,51,0.00,,SKC,0.00,VWS V14.01,2013-03-13 11:23:00,
2013-03-13 05:28:00,39.2,22.1,30.55,North,351,22.0,26.0,50,0.00,,SKC,0.00,VWS V14.01,2013-03-13 11:28:00,
2013-03-13 05:33:00,39.2,22.1,30.55,North,360,13.0,19.0,50,0.00,,SKC,0.00,VWS V14.01,2013-03-13 11:33:00,
2013-03-13 05:39:00,39.1,22.5,30.55,NW,321,26.0,26.0,51,0.00,,SKC,0.00,VWS V14.01,2013-03-13 11:39:00,
2013-03-13 05:44:00,39.3,22.7,30.55,North,355,18.0,22.0,51,0.00,,SKC,0.00,VWS V14.01,2013-03-13 11:44:00,
2013-03-13 05:49:00,39.4,22.3,30.55,North,9,25.0,26.0,50,0.00,,SKC,0.00,VWS V14.01,2013-03-13 11:49:00,
2013-03-13 05:55:00,39.4,22.8,30.54,North,349,9.0,16.0,51,0.00,,SKC,0.00,VWS V14.01,2013-03-13 11:55:00,
2013-03-13 06:00:00,39.3,22.2,30.55,NW,309,20.0,20.0,50,0.00,,SKC,0.00,VWS V14.01,2013-03-13 12:00:00,
2013-03-13 06:05:00,39.3,22.2,30.54,NW,305,20.0,22.0,50,0.00,,SKC,0.00,VWS V14.01,2013-03-13 12:05:00,
2013-03-13 06:11:00,39.3,22.2,30.54,WNW,294,14.0,22.0,50,0.00,,SKC,0.00,VWS V14.01,2013-03-13 12:11:00,
2013-03-13 06:16:00,39.4,22.3,30.55,WNW,286,21.0,23.0,50,0.00,,SKC,0.00,VWS V14.01,2013-03-13 12:16:00,
2013-03-13 06:21:00,39.4,22.3,30.54,NW,304,12.0,20.0,50,0.00,,SKC,0.00,VWS V14.01,2013-03-13 12:21:00,
2013-03-13 06:26:00,39.4,22.3,30.55,West,270,13.0,27.0,50,0.00,,SKC,0.00,VWS V14.01,2013-03-13 12:26:00,
2013-03-13 06:31:00,39.4,22.3,30.55,WNW,292,13.0,33.0,50,0.00,,SKC,0.00,VWS V14.01,2013-03-13 12:31:00,
2013-03-13 06:36:00,39.4,22.3,30.53,NW,316,15.0,22.0,50,0.00,,SKC,0.00,VWS V14.01,2013-03-13 12:36:00,
2013-03-13 06:42:00,39.4,22.3,30.52,West,269,34.0,39.0,50,0.00,,SKC,0.00,VWS V14.01,2013-03-13 12:42:00,
2013-03-13 06:47:00,39.5,22.4,30.52,West,267,17.0,46.0,50,0.00,,SKC,0.00,VWS V14.01,2013-03-13 12:47:00,
2013-03-13 06:52:00,39.3,22.2,30.52,West,275,14.0,33.0,50,0.00,,SKC,0.00,VWS V14.01,2013-03-13 12:52:00,
2013-03-13 06:57:00,39.3,22.2,30.52,West,280,17.0,32.0,50,0.00,,SKC,0.00,VWS V14.01,2013-03-13 12:57:00,
2013-03-13 07:02:00,39.3,22.2,30.53,WNW,292,24.0,28.0,50,0.00,,SKC,0.00,VWS V14.01,2013-03-13 13:02:00,
2013-03-13 07:07:00,39.5,22.4,30.54,North,360,33.0,33.0,50,0.00,,SKC,0.00,VWS V14.01,2013-03-13 13:07:00,
2013-03-13 07:13:00,39.3,22.2,30.52,West,277,33.0,41.0,50,0.00,,SKC,0.00,VWS V14.01,2013-03-13 13:13:00,
2013-03-13 07:19:00,39.3,23.2,30.53,North,360,40.0,46.0,52,0.00,,SKC,0.00,VWS V14.01,2013-03-13 13:19:00,
2013-03-13 07:24:00,39.4,22.8,30.52,West,261,21.0,35.0,51,0.00,,SKC,0.00,VWS V14.01,2013-03-13 13:24:00,
2013-03-13 07:29:00,39.4,22.3,30.51,SW,233,20.0,32.0,50,0.00,,SKC,0.00,VWS V14.01,2013-03-13 13:29:00,
2013-03-13 07:34:00,39.5,21.9,30.51,North,360,24.0,33.0,49,0.00,,SKC,0.00,VWS V14.01,2013-03-13 13:34:00,
2013-03-13 07:39:00,39.7,22.6,30.51,West,273,25.0,37.0,50,0.00,,SKC,0.00,VWS V14.01,2013-03-13 13:39:00,
2013-03-13 07:45:00,39.7,22.6,30.52,WNW,297,34.0,36.0,50,0.00,,SKC,0.00,VWS V14.01,2013-03-13 13:45:00,
2013-03-13 07:50:00,39.9,22.3,30.52,WSW,249,19.0,31.0,49,0.00,,SKC,0.00,VWS V14.01,2013-03-13 13:50:00,
2013-03-13 07:55:00,40.0,22.9,30.53,West,271,16.0,34.0,50,0.00,,SKC,0.00,VWS V14.01,2013-03-13 13:55:00,
2013-03-13 08:00:00,40.0,22.9,30.53,WNW,292,18.0,28.0,50,0.00,,SKC,0.00,VWS V14.01,2013-03-13 14:00:00,
2013-03-13 08:05:00,40.2,22.6,30.54,West,260,35.0,35.0,49,0.00,,SKC,0.00,VWS V14.01,2013-03-13 14:05:00,
2013-03-13 08:10:00,40.5,23.3,30.54,West,275,16.0,25.0,50,0.00,,SKC,0.00,VWS V14.01,2013-03-13 14:10:00,
2013-03-13 08:16:00,40.6,23.0,30.55,North,360,8.0,27.0,49,0.00,,SKC,0.00,VWS V14.01,2013-03-13 14:16:00,
2013-03-13 08:21:00,40.8,22.6,30.56,WNW,286,21.0,32.0,48,0.00,,SKC,0.00,VWS V14.01,2013-03-13 14:21:00,
2013-03-13 08:26:00,40.9,23.2,30.56,North,360,17.0,21.0,49,0.00,,SKC,0.00,VWS V14.01,2013-03-13 14:26:00,
2013-03-13 08:31:00,41.1,22.9,30.56,WSW,258,18.0,43.0,48,0.00,,SKC,0.00,VWS V14.01,2013-03-13 14:31:00,
2013-03-13 08:36:00,41.3,23.1,30.56,WSW,241,5.0,27.0,48,0.00,,SKC,0.00,VWS V14.01,2013-03-13 14:36:00,
2013-03-13 08:41:00,41.6,22.9,30.55,North,360,16.0,21.0,47,0.00,,SKC,0.00,VWS V14.01,2013-03-13 14:41:00,
2013-03-13 08:46:00,41.8,22.5,30.56,NNW,327,14.0,15.0,46,0.00,,SKC,0.00,VWS V14.01,2013-03-13 14:46:00,
2013-03-13 08:51:00,42.0,23.2,30.57,West,266,13.0,22.0,47,0.00,,SKC,0.00,VWS V14.01,2013-03-13 14:51:00,
2013-03-13 08:56:00,42.3,23.0,30.56,North,360,19.0,27.0,46,0.00,,SKC,0.00,VWS V14.01,2013-03-13 14:56:00,
2013-03-13 09:01:00,42.5,22.7,30.58,NW,321,14.0,25.0,45,0.00,,SKC,0.00,VWS V14.01,2013-03-13 15:01:00,
2013-03-13 09:06:00,42.8,23.5,30.57,WNW,298,9.0,18.0,46,0.00,,SKC,0.00,VWS V14.01,2013-03-13 15:06:00,
2013-03-13 09:11:00,43.1,23.2,30.57,NW,311,19.0,19.0,45,0.00,,SKC,0.00,VWS V14.01,2013-03-13 15:11:00,
2013-03-13 09:16:00,43.4,23.0,30.56,WNW,288,22.0,33.0,44,0.00,,SKC,0.00,VWS V14.01,2013-03-13 15:16:00,
2013-03-13 09:21:00,43.6,23.1,30.57,WNW,292,18.0,21.0,44,0.00,,SKC,0.00,VWS V14.01,2013-03-13 15:21:00,
2013-03-13 09:26:00,43.7,23.8,30.57,West,275,26.0,26.0,45,0.00,,SKC,0.00,VWS V14.01,2013-03-13 15:26:00,
2013-03-13 09:31:00,43.8,23.9,30.56,North,360,20.0,26.0,45,0.00,,SKC,0.00,VWS V14.01,2013-03-13 15:31:00,
2013-03-13 09:36:00,43.8,23.9,30.56,West,270,23.0,30.0,45,0.00,,SKC,0.00,VWS V14.01,2013-03-13 15:36:00,
2013-03-13 09:41:00,44.1,23.0,30.57,WNW,288,31.0,31.0,43,0.00,,SKC,0.00,VWS V14.01,2013-03-13 15:41:00,
2013-03-13 09:46:00,44.3,23.8,30.57,North,360,25.0,31.0,44,0.00,,SKC,0.00,VWS V14.01,2013-03-13 15:46:00,
2013-03-13 09:52:00,44.4,23.9,30.57,North,360,31.0,31.0,44,0.00,,SKC,0.00,VWS V14.01,2013-03-13 15:52:00,
2013-03-13 09:58:00,44.6,25.1,30.58,WSW,246,18.0,25.0,46,0.00,,SKC,0.00,VWS V14.01,2013-03-13 15:58:00,
2013-03-13 10:03:00,45.0,25.0,30.58,West,275,21.0,21.0,45,0.00,,SKC,0.00,VWS V14.01,2013-03-13 16:03:00,
2013-03-13 10:05:00,45.0,24.4,30.58,West,270,13.0,20.0,44,0.00,,SKC,0.00,VWS V14.01,2013-03-13 16:05:00,
2013-03-13 10:06:00,45.1,25.0,30.58,West,270,17.0,25.0,45,0.00,,SKC,0.00,VWS V14.01,2013-03-13 16:06:00,
2013-03-13 10:07:00,45.2,25.1,30.58,West,270,20.0,28.0,45,0.00,,SKC,0.00,VWS V14.01,2013-03-13 16:07:00,
2013-03-13 10:08:00,45.4,25.3,30.58,West,270,26.0,30.0,45,0.00,,SKC,0.00,VWS V14.01,2013-03-13 16:08:00,
2013-03-13 10:09:00,45.4,24.8,30.58,WSW,248,20.0,25.0,44,0.00,,SKC,0.00,VWS V14.01,2013-03-13 16:09:00,
2013-03-13 10:10:00,45.4,24.8,30.58,North,360,9.0,20.0,44,0.00,,SKC,0.00,VWS V14.01,2013-03-13 16:10:00,
2013-03-13 10:11:00,45.4,24.8,30.58,WSW,248,20.0,25.0,44,0.00,,SKC,0.00,VWS V14.01,2013-03-13 16:11:00,
2013-03-13 10:12:00,45.5,23.8,30.58,WSW,242,7.0,13.0,42,0.00,,SKC,0.00,VWS V14.01,2013-03-13 16:12:00,
2013-03-13 10:13:00,45.6,25.0,30.58,North,360,11.0,11.0,44,0.00,,SKC,0.00,VWS V14.01,2013-03-13 16:13:00,
2013-03-13 10:14:00,45.8,25.1,30.58,North,360,6.0,20.0,44,0.00,,SKC,0.00,VWS V14.01,2013-03-13 16:14:00,
2013-03-13 10:15:00,46.0,25.9,30.58,North,360,16.0,18.0,45,0.00,,SKC,0.00,VWS V14.01,2013-03-13 16:15:00,
2013-03-13 10:16:00,46.1,25.4,30.58,West,263,23.0,23.0,44,0.00,,SKC,0.00,VWS V14.01,2013-03-13 16:16:00,
2013-03-13 10:17:00,46.1,25.4,30.58,West,263,23.0,23.0,44,0.00,,SKC,0.00,VWS V14.01,2013-03-13 16:17:00,
2013-03-13 10:18:00,46.4,25.1,30.58,WSW,250,10.0,21.0,43,0.00,,SKC,0.00,VWS V14.01,2013-03-13 16:18:00,
2013-03-13 10:19:00,46.4,25.1,30.58,West,264,16.0,22.0,43,0.00,,SKC,0.00,VWS V14.01,2013-03-13 16:19:00,
2013-03-13 10:20:00,46.5,25.8,30.58,WSW,254,19.0,27.0,44,0.00,,SKC,0.00,VWS V14.01,2013-03-13 16:20:00,
2013-03-13 10:21:00,46.6,25.9,30.58,West,277,19.0,24.0,44,0.00,,SKC,0.00,VWS V14.01,2013-03-13 16:21:00,
2013-03-13 10:22:00,46.6,25.9,30.58,West,277,19.0,24.0,44,0.00,,SKC,0.00,VWS V14.01,2013-03-13 16:22:00,
2013-03-13 10:23:00,46.5,25.2,30.58,North,360,20.0,25.0,43,0.00,,SKC,0.00,VWS V14.01,2013-03-13 16:23:00,
2013-03-13 10:24:00,46.5,24.7,30.58,West,277,14.0,20.0,42,0.00,,SKC,0.00,VWS V14.01,2013-03-13 16:24:00,
2013-03-13 10:25:00,46.5,25.2,30.58,WSW,253,16.0,16.0,43,0.00,,SKC,0.00,VWS V14.01,2013-03-13 16:25:00,
2013-03-13 10:26:00,46.5,25.2,30.58,West,272,21.0,25.0,43,0.00,,SKC,0.00,VWS V14.01,2013-03-13 16:26:00,
2013-03-13 10:27:00,46.5,25.2,30.58,West,272,21.0,25.0,43,0.00,,SKC,0.00,VWS V14.01,2013-03-13 16:27:00,
2013-03-13 10:28:00,46.3,24.5,30.57,North,360,21.0,24.0,42,0.00,,SKC,0.00,VWS V14.01,2013-03-13 16:28:00,
2013-03-13 10:29:00,46.3,24.5,30.58,North,360,18.0,25.0,42,0.00,,SKC,0.00,VWS V14.01,2013-03-13 16:29:00,
2013-03-13 10:30:00,46.3,25.6,30.58,West,269,13.0,21.0,44,0.00,,SKC,0.00,VWS V14.01,2013-03-13 16:30:00,
2013-03-13 10:31:00,46.4,25.7,30.58,WSW,240,13.0,18.0,44,0.00,,SKC,0.00,VWS V14.01,2013-03-13 16:31:00,
2013-03-13 10:32:00,46.4,25.1,30.58,WSW,238,13.0,15.0,43,0.00,,SKC,0.00,VWS V14.01,2013-03-13 16:32:00,
2013-03-13 10:33:00,46.4,25.1,30.58,WSW,238,13.0,15.0,43,0.00,,SKC,0.00,VWS V14.01,2013-03-13 16:33:00,
2013-03-13 10:34:00,46.5,25.8,30.57,WSW,253,25.0,25.0,44,0.00,,SKC,0.00,VWS V14.01,2013-03-13 16:34:00,
2013-03-13 10:35:00,46.7,25.4,30.57,West,267,19.0,26.0,43,0.00,,SKC,0.00,VWS V14.01,2013-03-13 16:35:00,
2013-03-13 10:36:00,46.7,25.4,30.57,WSW,254,24.0,24.0,43,0.00,,SKC,0.00,VWS V14.01,2013-03-13 16:36:00,
2013-03-13 10:37:00,46.8,25.5,30.57,West,259,16.0,25.0,43,0.00,,SKC,0.00,VWS V14.01,2013-03-13 16:37:00,
2013-03-13 10:38:00,46.9,25.0,30.57,West,259,11.0,21.0,42,0.00,,SKC,0.00,VWS V14.01,2013-03-13 16:38:00,
2013-03-13 10:39:00,46.9,25.0,30.57,West,259,11.0,21.0,42,0.00,,SKC,0.00,VWS V14.01,2013-03-13 16:39:00,
2013-03-13 10:40:00,46.9,24.5,30.57,SW,223,15.0,19.0,41,0.00,,SKC,0.00,VWS V14.01,2013-03-13 16:40:00,
2013-03-13 10:41:00,46.9,25.0,30.57,SW,217,9.0,15.0,42,0.00,,SKC,0.00,VWS V14.01,2013-03-13 16:41:00,
2013-03-13 10:42:00,46.9,25.0,30.57,WSW,258,14.0,20.0,42,0.00,,SKC,0.00,VWS V14.01,2013-03-13 16:42:00,
2013-03-13 10:43:00,47.0,25.1,30.57,WSW,254,20.0,20.0,42,0.00,,SKC,0.00,VWS V14.01,2013-03-13 16:43:00,
2013-03-13 10:44:00,47.0,25.1,30.57,WSW,254,20.0,20.0,42,0.00,,SKC,0.00,VWS V14.01,2013-03-13 16:44:00,
2013-03-13 10:45:00,47.2,25.9,30.57,West,261,13.0,18.0,43,0.00,,SKC,0.00,VWS V14.01,2013-03-13 16:45:00,
2013-03-13 10:46:00,47.3,26.0,30.57,North,360,14.0,19.0,43,0.00,,SKC,0.00,VWS V14.01,2013-03-13 16:46:00,
2013-03-13 10:47:00,47.4,24.9,30.57,WSW,252,20.0,23.0,41,0.00,,SKC,0.00,VWS V14.01,2013-03-13 16:47:00,
2013-03-13 10:48:00,47.4,24.3,30.57,WSW,250,12.0,20.0,40,0.00,,SKC,0.00,VWS V14.01,2013-03-13 16:48:00,
2013-03-13 10:49:00,47.5,25.0,30.57,North,360,11.0,17.0,41,0.00,,SKC,0.00,VWS V14.01,2013-03-13 16:49:00,
2013-03-13 10:50:00,47.5,25.0,30.57,North,360,11.0,17.0,41,0.00,,SKC,0.00,VWS V14.01,2013-03-13 16:50:00,
2013-03-13 10:51:00,47.6,25.1,30.56,North,360,19.0,24.0,41,0.00,,SKC,0.00,VWS V14.01,2013-03-13 16:51:00,
2013-03-13 10:52:00,47.8,25.8,30.56,West,271,22.0,27.0,42,0.00,,SKC,0.00,VWS V14.01,2013-03-13 16:52:00,
2013-03-13 10:53:00,47.9,25.9,30.56,WSW,247,24.0,27.0,42,0.00,,SKC,0.00,VWS V14.01,2013-03-13 16:53:00,
2013-03-13 10:54:00,48.0,26.0,30.56,West,269,19.0,27.0,42,0.00,,SKC,0.00,VWS V14.01,2013-03-13 16:54:00,
2013-03-13 10:55:00,48.0,26.0,30.56,West,269,19.0,27.0,42,0.00,,SKC,0.00,VWS V14.01,2013-03-13 16:55:00,
2013-03-13 10:56:00,48.1,24.9,30.56,SW,236,15.0,21.0,40,0.00,,SKC,0.00,VWS V14.01,2013-03-13 16:56:00,
2013-03-13 10:57:00,48.1,25.5,30.56,West,266,26.0,29.0,41,0.00,,SKC,0.00,VWS V14.01,2013-03-13 16:57:00,
2013-03-13 10:58:00,48.0,24.2,30.56,SW,224,27.0,32.0,39,0.00,,SKC,0.00,VWS V14.01,2013-03-13 16:58:00,
2013-03-13 10:59:00,47.8,24.7,30.56,WSW,242,19.0,29.0,40,0.00,,SKC,0.00,VWS V14.01,2013-03-13 16:59:00,
2013-03-13 11:00:00,47.7,25.8,30.56,WSW,248,21.0,30.0,42,0.00,,SKC,0.00,VWS V14.01,2013-03-13 17:00:00,
2013-03-13 11:01:00,47.7,25.8,30.56,WSW,248,21.0,30.0,42,0.00,,SKC,0.00,VWS V14.01,2013-03-13 17:01:00,
2013-03-13 11:02:00,47.6,25.7,30.56,West,263,23.0,24.0,42,0.00,,SKC,0.00,VWS V14.01,2013-03-13 17:02:00,
2013-03-13 11:03:00,47.7,25.8,30.56,WSW,242,25.0,30.0,42,0.00,,SKC,0.00,VWS V14.01,2013-03-13 17:03:00,
2013-03-13 11:04:00,47.7,25.2,30.56,WSW,252,27.0,29.0,41,0.00,,SKC,0.00,VWS V14.01,2013-03-13 17:04:00,
2013-03-13 11:05:00,47.6,24.5,30.56,West,259,25.0,28.0,40,0.00,,SKC,0.00,VWS V14.01,2013-03-13 17:05:00,
2013-03-13 11:06:00,47.6,24.5,30.56,West,259,25.0,28.0,40,0.00,,SKC,0.00,VWS V14.01,2013-03-13 17:06:00,
2013-03-13 11:07:00,47.6,26.2,30.56,West,262,26.0,30.0,43,0.00,,SKC,0.00,VWS V14.01,2013-03-13 17:07:00,
2013-03-13 11:08:00,47.6,25.1,30.56,WSW,257,23.0,34.0,41,0.00,,SKC,0.00,VWS V14.01,2013-03-13 17:08:00,
2013-03-13 11:09:00,47.6,24.5,30.56,WSW,240,21.0,23.0,40,0.00,,SKC,0.00,VWS V14.01,2013-03-13 17:09:00,
2013-03-13 11:10:00,47.6,25.1,30.56,SW,234,20.0,26.0,41,0.00,,SKC,0.00,VWS V14.01,2013-03-13 17:10:00,
2013-03-13 11:11:00,47.6,25.1,30.56,SW,230,21.0,26.0,41,0.00,,SKC,0.00,VWS V14.01,2013-03-13 17:11:00,
2013-03-13 11:12:00,47.6,25.1,30.56,SW,230,21.0,26.0,41,0.00,,SKC,0.00,VWS V14.01,2013-03-13 17:12:00,
2013-03-13 11:13:00,47.8,25.8,30.55,SW,223,15.0,22.0,42,0.00,,SKC,0.00,VWS V14.01,2013-03-13 17:13:00,
2013-03-13 11:14:00,47.9,25.9,30.56,WSW,248,16.0,21.0,42,0.00,,SKC,0.00,VWS V14.01,2013-03-13 17:14:00,
2013-03-13 11:15:00,48.0,26.0,30.56,SW,235,20.0,26.0,42,0.00,,SKC,0.00,VWS V14.01,2013-03-13 17:15:00,
2013-03-13 11:16:00,48.1,25.5,30.55,WSW,249,19.0,27.0,41,0.00,,SKC,0.00,VWS V14.01,2013-03-13 17:16:00,
2013-03-13 11:17:00,48.1,25.5,30.55,WSW,249,19.0,27.0,41,0.00,,SKC,0.00,VWS V14.01,2013-03-13 17:17:00,
2013-03-13 11:18:00,48.3,25.7,30.55,WSW,254,19.0,28.0,41,0.00,,SKC,0.00,VWS V14.01,2013-03-13 17:18:00,
2013-03-13 11:19:00,48.3,25.7,30.55,WSW,251,15.0,23.0,41,0.00,,SKC,0.00,VWS V14.01,2013-03-13 17:19:00,
2013-03-13 11:20:00,48.4,25.8,30.55,WSW,255,15.0,26.0,41,0.00,,SKC,0.00,VWS V14.01,2013-03-13 17:20:00,
2013-03-13 11:21:00,48.5,25.9,30.55,WSW,248,21.0,24.0,41,0.00,,SKC,0.00,VWS V14.01,2013-03-13 17:21:00,
2013-03-13 11:22:00,48.5,25.9,30.55,WSW,248,21.0,24.0,41,0.00,,SKC,0.00,VWS V14.01,2013-03-13 17:22:00,
2013-03-13 11:23:00,48.8,26.2,30.56,WSW,257,15.0,22.0,41,0.00,,SKC,0.00,VWS V14.01,2013-03-13 17:23:00,
2013-03-13 11:24:00,48.9,26.2,30.56,SW,228,13.0,21.0,41,0.00,,SKC,0.00,VWS V14.01,2013-03-13 17:24:00,
2013-03-13 11:25:00,49.0,25.8,30.56,WSW,246,14.0,22.0,40,0.00,,SKC,0.00,VWS V14.01,2013-03-13 17:25:00,
2013-03-13 11:26:00,49.2,27.1,30.56,WSW,243,16.0,23.0,42,0.00,,SKC,0.00,VWS V14.01,2013-03-13 17:26:00,
2013-03-13 11:27:00,49.2,26.5,30.56,SW,223,14.0,18.0,41,0.00,,SKC,0.00,VWS V14.01,2013-03-13 17:27:00,
2013-03-13 11:28:00,49.2,26.5,30.56,SW,223,14.0,18.0,41,0.00,,SKC,0.00,VWS V14.01,2013-03-13 17:28:00,
2013-03-13 11:29:00,49.1,25.8,30.55,North,360,13.0,20.0,40,0.00,,SKC,0.00,VWS V14.01,2013-03-13 17:29:00,
2013-03-13 11:30:00,49.1,25.8,30.55,SW,230,7.0,17.0,40,0.00,,SKC,0.00,VWS V14.01,2013-03-13 17:30:00,
2013-03-13 11:31:00,49.0,25.8,30.56,SW,220,11.0,13.0,40,0.00,,SKC,0.00,VWS V14.01,2013-03-13 17:31:00,
2013-03-13 11:32:00,49.0,25.8,30.56,SSW,197,5.0,15.0,40,0.00,,SKC,0.00,VWS V14.01,2013-03-13 17:32:00,
2013-03-13 11:33:00,49.0,25.8,30.56,SSW,197,5.0,15.0,40,0.00,,SKC,0.00,VWS V14.01,2013-03-13 17:33:00,
2013-03-13 11:34:00,49.1,25.2,30.56,North,360,7.0,11.0,39,0.00,,SKC,0.00,VWS V14.01,2013-03-13 17:34:00,
2013-03-13 11:35:00,49.1,26.4,30.56,West,261,7.0,11.0,41,0.00,,SKC,0.00,VWS V14.01,2013-03-13 17:35:00,
2013-03-13 11:36:00,49.2,26.5,30.56,WSW,248,13.0,15.0,41,0.00,,SKC,0.00,VWS V14.01,2013-03-13 17:36:00,
2013-03-13 11:37:00,49.3,27.2,30.56,WSW,246,10.0,14.0,42,0.00,,SKC,0.00,VWS V14.01,2013-03-13 17:37:00,
2013-03-13 11:38:00,49.5,26.2,30.56,WNW,286,13.0,23.0,40,0.00,,SKC,0.00,VWS V14.01,2013-03-13 17:38:00,
2013-03-13 11:39:00,49.5,26.2,30.56,WNW,286,13.0,23.0,40,0.00,,SKC,0.00,VWS V14.01,2013-03-13 17:39:00,
2013-03-13 11:40:00,49.9,25.3,30.56,SSW,196,7.0,15.0,38,0.00,,SKC,0.00,VWS V14.01,2013-03-13 17:40:00,
2013-03-13 11:41:00,50.1,27.3,30.55,WSW,248,15.0,18.0,41,0.00,,SKC,0.00,VWS V14.01,2013-03-13 17:41:00,
2013-03-13 11:42:00,50.3,25.0,30.56,WSW,251,10.0,15.0,37,0.00,,SKC,0.00,VWS V14.01,2013-03-13 17:42:00,
2013-03-13 11:43:00,50.5,28.3,30.56,SW,219,5.0,13.0,42,0.00,,SKC,0.00,VWS V14.01,2013-03-13 17:43:00,
2013-03-13 11:44:00,50.5,28.3,30.56,SW,219,5.0,13.0,42,0.00,,SKC,0.00,VWS V14.01,2013-03-13 17:44:00,
2013-03-13 11:45:00,50.8,26.1,30.56,SW,224,10.0,14.0,38,0.00,,SKC,0.00,VWS V14.01,2013-03-13 17:45:00,
2013-03-13 11:46:00,51.0,26.9,30.56,WSW,248,11.0,13.0,39,0.00,,SKC,0.00,VWS V14.01,2013-03-13 17:46:00,
2013-03-13 11:47:00,51.1,26.4,30.56,WSW,240,9.0,12.0,38,0.00,,SKC,0.00,VWS V14.01,2013-03-13 17:47:00,
2013-03-13 11:48:00,51.1,27.0,30.56,SSW,207,11.0,14.0,39,0.00,,SKC,0.00,VWS V14.01,2013-03-13 17:48:00,
2013-03-13 11:49:00,51.1,25.8,30.56,SW,232,11.0,16.0,37,0.00,,SKC,0.00,VWS V14.01,2013-03-13 17:49:00,
2013-03-13 11:50:00,51.1,25.8,30.56,SW,232,11.0,16.0,37,0.00,,SKC,0.00,VWS V14.01,2013-03-13 17:50:00,
2013-03-13 11:51:00,51.0,26.3,30.55,West,261,13.0,15.0,38,0.00,,SKC,0.00,VWS V14.01,2013-03-13 17:51:00,
2013-03-13 11:52:00,51.0,25.0,30.56,SW,223,11.0,18.0,36,0.00,,SKC,0.00,VWS V14.01,2013-03-13 17:52:00,
2013-03-13 11:53:00,51.1,27.0,30.56,West,270,16.0,21.0,39,0.00,,SKC,0.00,VWS V14.01,2013-03-13 17:53:00,
2013-03-13 11:54:00,51.2,25.8,30.56,West,263,12.0,16.0,37,0.00,,SKC,0.00,VWS V14.01,2013-03-13 17:54:00,
2013-03-13 11:55:00,51.2,25.8,30.56,West,263,12.0,16.0,37,0.00,,SKC,0.00,VWS V14.01,2013-03-13 17:55:00,
2013-03-13 11:56:00,51.4,25.4,30.56,WNW,292,11.0,15.0,36,0.00,,SKC,0.00,VWS V14.01,2013-03-13 17:56:00,
2013-03-13 11:57:00,51.4,24.0,30.56,SW,215,10.0,18.0,34,0.00,,SKC,0.00,VWS V14.01,2013-03-13 17:57:00,
2013-03-13 11:58:00,51.4,26.0,30.56,WSW,242,19.0,21.0,37,0.00,,SKC,0.00,VWS V14.01,2013-03-13 17:58:00,
2013-03-13 11:59:00,51.4,25.4,30.56,WSW,238,16.0,22.0,36,0.00,,SKC,0.00,VWS V14.01,2013-03-13 17:59:00,
2013-03-13 12:00:00,51.4,25.4,30.56,WSW,238,16.0,22.0,36,0.00,,SKC,0.00,VWS V14.01,2013-03-13 18:00:00,
2013-03-13 12:01:00,51.2,24.5,30.56,WSW,252,9.0,20.0,35,0.00,,SKC,0.00,VWS V14.01,2013-03-13 18:01:00,
2013-03-13 12:02:00,51.2,24.5,30.56,West,275,12.0,22.0,35,0.00,,SKC,0.00,VWS V14.01,2013-03-13 18:02:00,
2013-03-13 12:03:00,51.1,25.8,30.56,West,265,9.0,18.0,37,0.00,,SKC,0.00,VWS V14.01,2013-03-13 18:03:00,
2013-03-13 12:04:00,51.2,25.2,30.56,West,265,15.0,19.0,36,0.00,,SKC,0.00,VWS V14.01,2013-03-13 18:04:00,
2013-03-13 12:05:00,51.2,25.2,30.56,West,265,15.0,19.0,36,0.00,,SKC,0.00,VWS V14.01,2013-03-13 18:05:00,
2013-03-13 12:06:00,51.2,25.2,30.55,SW,220,11.0,13.0,36,0.00,,SKC,0.00,VWS V14.01,2013-03-13 18:06:00,
2013-03-13 12:07:00,51.3,25.3,30.55,SW,221,16.0,16.0,36,0.00,,SKC,0.00,VWS V14.01,2013-03-13 18:07:00,
2013-03-13 12:08:00,51.2,25.8,30.55,West,267,13.0,22.0,37,0.00,,SKC,0.00,VWS V14.01,2013-03-13 18:08:00,
2013-03-13 12:09:00,51.2,25.8,30.55,WSW,256,16.0,23.0,37,0.00,,SKC,0.00,VWS V14.01,2013-03-13 18:09:00,
2013-03-13 12:10:00,51.2,25.8,30.55,WSW,256,16.0,23.0,37,0.00,,SKC,0.00,VWS V14.01,2013-03-13 18:10:00,
2013-03-13 12:11:00,51.1,25.8,30.55,WSW,251,7.0,10.0,37,0.00,,SKC,0.00,VWS V14.01,2013-03-13 18:11:00,
2013-03-13 12:12:00,51.2,26.5,30.55,SW,219,11.0,11.0,38,0.00,,SKC,0.00,VWS V14.01,2013-03-13 18:12:00,
2013-03-13 12:13:00,51.4,27.9,30.55,SW,234,12.0,14.0,40,0.00,,SKC,0.00,VWS V14.01,2013-03-13 18:13:00,
2013-03-13 12:14:00,51.5,26.8,30.55,North,360,10.0,15.0,38,0.00,,SKC,0.00,VWS V14.01,2013-03-13 18:14:00,
2013-03-13 12:15:00,51.5,26.8,30.55,North,360,10.0,15.0,38,0.00,,SKC,0.00,VWS V14.01,2013-03-13 18:15:00,
2013-03-13 12:16:00,51.7,25.6,30.55,SW,229,15.0,16.0,36,0.00,,SKC,0.00,VWS V14.01,2013-03-13 18:16:00,
2013-03-13 12:17:00,51.9,25.8,30.55,SW,235,14.0,18.0,36,0.00,,SKC,0.00,VWS V14.01,2013-03-13 18:17:00,
2013-03-13 12:19:00,52.2,26.7,30.55,SW,215,8.0,17.0,37,0.00,,SKC,0.00,VWS V14.01,2013-03-13 18:19:00,
2013-03-13 12:20:00,52.2,26.7,30.55,SW,215,8.0,17.0,37,0.00,,SKC,0.00,VWS V14.01,2013-03-13 18:20:00,
2013-03-13 12:21:00,52.4,26.2,30.55,North,360,10.0,13.0,36,0.00,,SKC,0.00,VWS V14.01,2013-03-13 18:21:00,
2013-03-13 12:23:00,52.6,27.1,30.55,WSW,240,17.0,18.0,37,0.00,,SKC,0.00,VWS V14.01,2013-03-13 18:23:00,
2013-03-13 12:24:00,52.6,27.1,30.54,SSW,207,19.0,21.0,37,0.00,,SKC,0.00,VWS V14.01,2013-03-13 18:24:00,
2013-03-13 12:25:00,52.4,26.9,30.54,SSW,193,13.0,20.0,37,0.00,,SKC,0.00,VWS V14.01,2013-03-13 18:25:00,
2013-03-13 12:26:00,52.4,26.9,30.54,SSW,193,13.0,20.0,37,0.00,,SKC,0.00,VWS V14.01,2013-03-13 18:26:00,
2013-03-13 12:27:00,52.1,26.0,30.54,SSW,211,15.0,20.0,36,0.00,,SKC,0.00,VWS V14.01,2013-03-13 18:27:00,
2013-03-13 12:28:00,51.8,26.4,30.54,WSW,245,14.0,18.0,37,0.00,,SKC,0.00,VWS V14.01,2013-03-13 18:28:00,
2013-03-13 12:29:00,51.7,26.9,30.54,SW,219,16.0,22.0,38,0.00,,SKC,0.00,VWS V14.01,2013-03-13 18:29:00,
2013-03-13 12:30:00,51.5,26.1,30.54,West,271,15.0,16.0,37,0.00,,SKC,0.00,VWS V14.01,2013-03-13 18:30:00,
2013-03-13 12:31:00,51.5,26.1,30.54,West,271,15.0,16.0,37,0.00,,SKC,0.00,VWS V14.01,2013-03-13 18:31:00,
2013-03-13 12:32:00,51.2,25.2,30.54,SW,229,16.0,22.0,36,0.00,,SKC,0.00,VWS V14.01,2013-03-13 18:32:00,
2013-03-13 12:33:00,51.0,26.3,30.54,North,360,23.0,23.0,38,0.00,,SKC,0.00,VWS V14.01,2013-03-13 18:33:00,
2013-03-13 12:34:00,50.9,26.2,30.54,WSW,244,13.0,25.0,38,0.00,,SKC,0.00,VWS V14.01,2013-03-13 18:34:00,
2013-03-13 12:35:00,51.0,27.5,30.54,North,360,23.0,25.0,40,0.00,,SKC,0.00,VWS V14.01,2013-03-13 18:35:00,
2013-03-13 12:36:00,51.0,27.5,30.54,North,360,23.0,25.0,40,0.00,,SKC,0.00,VWS V14.01,2013-03-13 18:36:00,
2013-03-13 12:37:00,50.9,26.2,30.54,SW,224,13.0,19.0,38,0.00,,SKC,0.00,VWS V14.01,2013-03-13 18:37:00,
2013-03-13 12:38:00,51.0,26.9,30.54,North,360,21.0,22.0,39,0.00,,SKC,0.00,VWS V14.01,2013-03-13 18:38:00,
2013-03-13 12:39:00,51.0,26.3,30.54,SSW,205,26.0,28.0,38,0.00,,SKC,0.00,VWS V14.01,2013-03-13 18:39:00,
2013-03-13 12:40:00,51.0,25.7,30.53,West,266,21.0,28.0,37,0.00,,SKC,0.00,VWS V14.01,2013-03-13 18:40:00,
2013-03-13 12:41:00,50.9,25.6,30.54,West,265,29.0,29.0,37,0.00,,SKC,0.00,VWS V14.01,2013-03-13 18:41:00,
2013-03-13 12:42:00,50.9,25.6,30.54,West,265,29.0,29.0,37,0.00,,SKC,0.00,VWS V14.01,2013-03-13 18:42:00,
2013-03-13 12:43:00,50.7,26.0,30.54,WSW,257,23.0,24.0,38,0.00,,SKC,0.00,VWS V14.01,2013-03-13 18:43:00,
2013-03-13 12:44:00,50.7,26.7,30.54,SW,220,19.0,27.0,39,0.00,,SKC,0.00,VWS V14.01,2013-03-13 18:44:00,
2013-03-13 12:45:00,50.6,26.0,30.53,SW,222,15.0,24.0,38,0.00,,SKC,0.00,VWS V14.01,2013-03-13 18:45:00,
2013-03-13 12:46:00,50.6,25.3,30.53,North,360,20.0,23.0,37,0.00,,SKC,0.00,VWS V14.01,2013-03-13 18:46:00,
2013-03-13 12:47:00,50.6,25.3,30.53,North,360,20.0,23.0,37,0.00,,SKC,0.00,VWS V14.01,2013-03-13 18:47:00,
2013-03-13 12:48:00,50.8,26.1,30.54,SSW,207,20.0,29.0,38,0.00,,SKC,0.00,VWS V14.01,2013-03-13 18:48:00,
2013-03-13 12:49:00,50.8,26.1,30.53,West,281,12.0,23.0,38,0.00,,SKC,0.00,VWS V14.01,2013-03-13 18:49:00,
2013-03-13 12:50:00,50.9,26.2,30.53,WSW,257,25.0,25.0,38,0.00,,SKC,0.00,VWS V14.01,2013-03-13 18:50:00,
2013-03-13 12:51:00,51.0,26.3,30.53,SW,225,15.0,25.0,38,0.00,,SKC,0.00,VWS V14.01,2013-03-13 18:51:00,
2013-03-13 12:52:00,51.0,26.3,30.53,SW,225,15.0,25.0,38,0.00,,SKC,0.00,VWS V14.01,2013-03-13 18:52:00,
2013-03-13 12:53:00,51.1,25.8,30.53,WSW,252,17.0,22.0,37,0.00,,SKC,0.00,VWS V14.01,2013-03-13 18:53:00,
2013-03-13 12:54:00,51.2,26.5,30.53,WSW,245,13.0,23.0,38,0.00,,SKC,0.00,VWS V14.01,2013-03-13 18:54:00,
2013-03-13 12:55:00,51.3,26.6,30.53,WNW,290,17.0,25.0,38,0.00,,SKC,0.00,VWS V14.01,2013-03-13 18:55:00,
2013-03-13 12:56:00,51.3,25.9,30.53,North,360,17.0,24.0,37,0.00,,SKC,0.00,VWS V14.01,2013-03-13 18:56:00,
2013-03-13 12:57:00,51.1,25.1,30.53,West,273,15.0,24.0,36,0.00,,SKC,0.00,VWS V14.01,2013-03-13 18:57:00,
2013-03-13 12:58:00,51.1,25.1,30.53,West,273,15.0,24.0,36,0.00,,SKC,0.00,VWS V14.01,2013-03-13 18:58:00,
2013-03-13 12:59:00,50.9,26.2,30.53,North,360,22.0,23.0,38,0.00,,SKC,0.00,VWS V14.01,2013-03-13 18:59:00,
2013-03-13 13:00:00,50.8,25.5,30.53,WSW,258,18.0,26.0,37,0.00,,SKC,0.00,VWS V14.01,2013-03-13 19:00:00,
2013-03-13 13:01:00,50.6,25.3,30.53,WSW,252,17.0,25.0,37,0.00,,SKC,0.00,VWS V14.01,2013-03-13 19:01:00,
2013-03-13 13:02:00,50.5,25.9,30.53,WSW,242,19.0,24.0,38,0.00,,SKC,0.00,VWS V14.01,2013-03-13 19:02:00,
2013-03-13 13:03:00,50.5,25.9,30.53,WSW,242,19.0,24.0,38,0.00,,SKC,0.00,VWS V14.01,2013-03-13 19:03:00,
2013-03-13 13:04:00,50.3,25.0,30.53,SSW,204,14.0,18.0,37,0.00,,SKC,0.00,VWS V14.01,2013-03-13 19:04:00,
2013-03-13 13:05:00,50.2,25.0,30.53,SSW,211,15.0,21.0,37,0.00,,SKC,0.00,VWS V14.01,2013-03-13 19:05:00,
2013-03-13 13:06:00,50.2,26.2,30.53,SW,226,16.0,20.0,39,0.00,,SKC,0.00,VWS V14.01,2013-03-13 19:06:00,
2013-03-13 13:07:00,50.2,25.0,30.53,SSW,199,15.0,17.0,37,0.00,,SKC,0.00,VWS V14.01,2013-03-13 19:07:00,
2013-03-13 13:08:00,50.2,25.0,30.53,SSW,199,15.0,17.0,37,0.00,,SKC,0.00,VWS V14.01,2013-03-13 19:08:00,
2013-03-13 13:09:00,50.2,25.0,30.53,SSW,210,13.0,22.0,37,0.00,,SKC,0.00,VWS V14.01,2013-03-13 19:09:00,
2013-03-13 13:10:00,50.2,25.0,30.52,South,184,15.0,22.0,37,0.00,,SKC,0.00,VWS V14.01,2013-03-13 19:10:00,
2013-03-13 13:11:00,50.1,24.9,30.52,South,189,14.0,21.0,37,0.00,,SKC,0.00,VWS V14.01,2013-03-13 19:11:00,
2013-03-13 13:12:00,50.0,24.8,30.52,SSW,213,20.0,22.0,37,0.00,,SKC,0.00,VWS V14.01,2013-03-13 19:12:00,
2013-03-13 13:13:00,50.0,24.8,30.52,SSW,213,20.0,22.0,37,0.00,,SKC,0.00,VWS V14.01,2013-03-13 19:13:00,
2013-03-13 13:14:00,49.9,25.3,30.52,North,360,15.0,23.0,38,0.00,,SKC,0.00,VWS V14.01,2013-03-13 19:14:00,
2013-03-13 13:15:00,49.9,24.7,30.51,SSW,196,12.0,19.0,37,0.00,,SKC,0.00,VWS V14.01,2013-03-13 19:15:00,
2013-03-13 13:16:00,49.9,26.0,30.52,WSW,254,9.0,23.0,39,0.00,,SKC,0.00,VWS V14.01,2013-03-13 19:16:00,
2013-03-13 13:17:00,50.0,25.4,30.52,SSW,212,9.0,15.0,38,0.00,,SKC,0.00,VWS V14.01,2013-03-13 19:17:00,
2013-03-13 13:18:00,50.2,25.6,30.52,WSW,242,20.0,23.0,38,0.00,,SKC,0.00,VWS V14.01,2013-03-13 19:18:00,
2013-03-13 13:19:00,50.2,25.6,30.52,WSW,242,20.0,23.0,38,0.00,,SKC,0.00,VWS V14.01,2013-03-13 19:19:00,
2013-03-13 13:20:00,50.5,26.5,30.52,North,360,16.0,16.0,39,0.00,,SKC,0.00,VWS V14.01,2013-03-13 19:20:00,
2013-03-13 13:21:00,50.6,26.0,30.52,SW,225,19.0,23.0,38,0.00,,SKC,0.00,VWS V14.01,2013-03-13 19:21:00,
2013-03-13 13:22:00,50.7,25.4,30.51,SSW,198,12.0,22.0,37,0.00,,SKC,0.00,VWS V14.01,2013-03-13 19:22:00,
2013-03-13 13:23:00,50.7,25.4,30.51,West,262,17.0,18.0,37,0.00,,SKC,0.00,VWS V14.01,2013-03-13 19:23:00,
2013-03-13 13:24:00,50.7,25.4,30.51,West,262,17.0,18.0,37,0.00,,SKC,0.00,VWS V14.01,2013-03-13 19:24:00,
2013-03-13 13:25:00,50.8,26.1,30.51,SSW,210,14.0,15.0,38,0.00,,SKC,0.00,VWS V14.01,2013-03-13 19:25:00,
2013-03-13 13:26:00,50.9,26.2,30.51,SSW,194,15.0,15.0,38,0.00,,SKC,0.00,VWS V14.01,2013-03-13 19:26:00,
2013-03-13 13:27:00,51.1,25.8,30.51,SSW,198,13.0,19.0,37,0.00,,SKC,0.00,VWS V14.01,2013-03-13 19:27:00,
2013-03-13 13:28:00,51.4,27.3,30.51,SSE,160,6.0,13.0,39,0.00,,SKC,0.00,VWS V14.01,2013-03-13 19:28:00,
2013-03-13 13:29:00,51.7,26.3,30.51,North,360,9.0,14.0,37,0.00,,SKC,0.00,VWS V14.01,2013-03-13 19:29:00,
2013-03-13 13:30:00,51.7,26.3,30.51,North,360,9.0,14.0,37,0.00,,SKC,0.00,VWS V14.01,2013-03-13 19:30:00,
2013-03-13 13:31:00,52.2,26.1,30.51,SSW,202,13.0,14.0,36,0.00,,SKC,0.00,VWS V14.01,2013-03-13 19:31:00,
2013-03-13 13:32:00,52.3,26.8,30.51,West,265,7.0,16.0,37,0.00,,SKC,0.00,VWS V14.01,2013-03-13 19:32:00,
2013-03-13 13:33:00,52.5,25.7,30.51,West,261,15.0,17.0,35,0.00,,SKC,0.00,VWS V14.01,2013-03-13 19:33:00,
2013-03-13 13:34:00,52.7,27.2,30.51,West,277,7.0,17.0,37,0.00,,SKC,0.00,VWS V14.01,2013-03-13 19:34:00,
2013-03-13 13:35:00,52.9,25.3,30.51,West,279,10.0,14.0,34,0.00,,SKC,0.00,VWS V14.01,2013-03-13 19:35:00,
2013-03-13 13:36:00,52.9,25.3,30.51,West,279,10.0,14.0,34,0.00,,SKC,0.00,VWS V14.01,2013-03-13 19:36:00,
2013-03-13 13:37:00,53.4,26.5,30.52,WNW,284,12.0,19.0,35,0.00,,SKC,0.00,VWS V14.01,2013-03-13 19:37:00,
2013-03-13 13:38:00,53.6,25.9,30.51,WSW,253,9.0,16.0,34,0.00,,SKC,0.00,VWS V14.01,2013-03-13 19:38:00,
2013-03-13 13:39:00,53.9,26.9,30.51,North,360,12.0,14.0,35,0.00,,SKC,0.00,VWS V14.01,2013-03-13 19:39:00,
2013-03-13 13:40:00,54.0,27.0,30.51,SW,236,18.0,23.0,35,0.00,,SKC,0.00,VWS V14.01,2013-03-13 19:40:00,
2013-03-13 13:41:00,54.1,24.9,30.51,West,263,16.0,18.0,32,0.00,,SKC,0.00,VWS V14.01,2013-03-13 19:41:00,
2013-03-13 13:42:00,54.1,25.6,30.51,WNW,291,21.0,21.0,33,0.00,,SKC,0.00,VWS V14.01,2013-03-13 19:42:00,
2013-03-13 13:43:00,54.1,25.6,30.51,WNW,291,21.0,21.0,33,0.00,,SKC,0.00,VWS V14.01,2013-03-13 19:43:00,
2013-03-13 13:44:00,54.2,27.2,30.51,WSW,247,7.0,13.0,35,0.00,,SKC,0.00,VWS V14.01,2013-03-13 19:44:00,
2013-03-13 13:45:00,54.3,26.5,30.51,SSW,197,6.0,7.0,34,0.00,,SKC,0.00,VWS V14.01,2013-03-13 19:45:00,
2013-03-13 13:46:00,54.5,27.4,30.51,SSW,200,6.0,7.0,35,0.00,,SKC,0.00,VWS V14.01,2013-03-13 19:46:00,
2013-03-13 13:47:00,54.6,26.1,30.51,SW,216,4.0,12.0,33,0.00,,SKC,0.00,VWS V14.01,2013-03-13 19:47:00,
2013-03-13 13:48:00,54.6,26.1,30.51,SW,216,4.0,12.0,33,0.00,,SKC,0.00,VWS V14.01,2013-03-13 19:48:00,
2013-03-13 13:49:00,55.0,25.7,30.50,SW,228,6.0,11.0,32,0.00,,SKC,0.00,VWS V14.01,2013-03-13 19:49:00,
2013-03-13 13:50:00,55.1,26.5,30.50,WSW,240,12.0,12.0,33,0.00,,SKC,0.00,VWS V14.01,2013-03-13 19:50:00,
2013-03-13 13:51:00,55.3,26.7,30.50,West,274,15.0,21.0,33,0.00,,SKC,0.00,VWS V14.01,2013-03-13 19:51:00,
2013-03-13 13:52:00,55.3,26.7,30.50,WSW,253,7.0,18.0,33,0.00,,SKC,0.00,VWS V14.01,2013-03-13 19:52:00,
2013-03-13 13:53:00,55.3,26.7,30.50,WSW,253,7.0,18.0,33,0.00,,SKC,0.00,VWS V14.01,2013-03-13 19:53:00,
2013-03-13 13:54:00,55.3,26.7,30.50,West,275,8.0,14.0,33,0.00,,SKC,0.00,VWS V14.01,2013-03-13 19:54:00,
2013-03-13 13:55:00,55.3,28.1,30.50,WSW,250,11.0,15.0,35,0.00,,SKC,0.00,VWS V14.01,2013-03-13 19:55:00,
2013-03-13 13:56:00,55.2,26.6,30.49,SW,218,24.0,24.0,33,0.00,,SKC,0.00,VWS V14.01,2013-03-13 19:56:00,
2013-03-13 13:57:00,54.9,25.6,30.49,SSW,198,15.0,24.0,32,0.00,,SKC,0.00,VWS V14.01,2013-03-13 19:57:00,
2013-03-13 13:58:00,54.9,25.6,30.49,SSW,198,15.0,24.0,32,0.00,,SKC,0.00,VWS V14.01,2013-03-13 19:58:00,
2013-03-13 13:59:00,54.2,26.5,30.49,SW,223,12.0,15.0,34,0.00,,SKC,0.00,VWS V14.01,2013-03-13 19:59:00,
2013-03-13 14:00:00,54.0,26.3,30.49,North,360,15.0,25.0,34,0.00,,SKC,0.00,VWS V14.01,2013-03-13 20:00:00,
2013-03-13 14:01:00,53.9,26.2,30.49,North,360,22.0,28.0,34,0.00,,SKC,0.00,VWS V14.01,2013-03-13 20:01:00,
2013-03-13 14:02:00,53.7,26.0,30.49,North,360,23.0,23.0,34,0.00,,SKC,0.00,VWS V14.01,2013-03-13 20:02:00,
2013-03-13 14:03:00,53.7,26.0,30.49,North,360,23.0,23.0,34,0.00,,SKC,0.00,VWS V14.01,2013-03-13 20:03:00,
2013-03-13 14:04:00,53.1,24.8,30.48,WSW,251,19.0,24.0,33,0.00,,SKC,0.00,VWS V14.01,2013-03-13 20:04:00,
2013-03-13 14:05:00,52.8,25.9,30.49,WSW,249,23.0,25.0,35,0.00,,SKC,0.00,VWS V14.01,2013-03-13 20:05:00,
2013-03-13 14:06:00,52.7,25.8,30.49,SW,223,21.0,28.0,35,0.00,,SKC,0.00,VWS V14.01,2013-03-13 20:06:00,
2013-03-13 14:07:00,52.6,25.0,30.49,West,272,19.0,24.0,34,0.00,,SKC,0.00,VWS V14.01,2013-03-13 20:07:00,
2013-03-13 14:08:00,52.6,26.4,30.49,SW,229,17.0,25.0,36,0.00,,SKC,0.00,VWS V14.01,2013-03-13 20:08:00,
2013-03-13 14:09:00,52.6,26.4,30.49,SW,229,17.0,25.0,36,0.00,,SKC,0.00,VWS V14.01,2013-03-13 20:09:00,
2013-03-13 14:10:00,52.4,24.9,30.49,SW,231,22.0,27.0,34,0.00,,SKC,0.00,VWS V14.01,2013-03-13 20:10:00,
2013-03-13 14:11:00,52.3,24.8,30.49,North,360,20.0,22.0,34,0.00,,SKC,0.00,VWS V14.01,2013-03-13 20:11:00,
2013-03-13 14:12:00,52.2,26.1,30.49,North,360,17.0,22.0,36,0.00,,SKC,0.00,VWS V14.01,2013-03-13 20:12:00,
2013-03-13 14:13:00,52.2,24.7,30.49,SW,220,12.0,17.0,34,0.00,,SKC,0.00,VWS V14.01,2013-03-13 20:13:00,
2013-03-13 14:14:00,52.2,24.7,30.49,SW,220,12.0,17.0,34,0.00,,SKC,0.00,VWS V14.01,2013-03-13 20:14:00,
2013-03-13 14:15:00,52.3,26.8,30.49,WSW,251,17.0,25.0,37,0.00,,SKC,0.00,VWS V14.01,2013-03-13 20:15:00,
2013-03-13 14:16:00,52.4,25.6,30.49,SW,221,21.0,27.0,35,0.00,,SKC,0.00,VWS V14.01,2013-03-13 20:16:00,
2013-03-13 14:17:00,52.6,25.0,30.48,West,259,21.0,25.0,34,0.00,,SKC,0.00,VWS V14.01,2013-03-13 20:17:00,
2013-03-13 14:18:00,52.5,25.0,30.48,SW,227,15.0,25.0,34,0.00,,SKC,0.00,VWS V14.01,2013-03-13 20:18:00,
2013-03-13 14:19:00,52.5,25.7,30.48,SW,226,13.0,19.0,35,0.00,,SKC,0.00,VWS V14.01,2013-03-13 20:19:00,
2013-03-13 14:20:00,52.5,25.7,30.48,SW,226,13.0,19.0,35,0.00,,SKC,0.00,VWS V14.01,2013-03-13 20:20:00,
2013-03-13 14:21:00,52.6,25.0,30.48,West,281,23.0,23.0,34,0.00,,SKC,0.00,VWS V14.01,2013-03-13 20:21:00,
2013-03-13 14:22:00,52.6,25.0,30.48,West,270,22.0,23.0,34,0.00,,SKC,0.00,VWS V14.01,2013-03-13 20:22:00,
2013-03-13 14:23:00,52.6,25.0,30.49,WSW,247,12.0,22.0,34,0.00,,SKC,0.00,VWS V14.01,2013-03-13 20:23:00,
2013-03-13 14:24:00,52.5,24.2,30.48,WSW,237,19.0,22.0,33,0.00,,SKC,0.00,VWS V14.01,2013-03-13 20:24:00,
2013-03-13 14:25:00,52.5,24.2,30.48,WSW,237,19.0,22.0,33,0.00,,SKC,0.00,VWS V14.01,2013-03-13 20:25:00,
2013-03-13 14:26:00,52.2,24.7,30.48,SW,230,12.0,17.0,34,0.00,,SKC,0.00,VWS V14.01,2013-03-13 20:26:00,
2013-03-13 14:27:00,52.1,24.6,30.48,WSW,248,11.0,17.0,34,0.00,,SKC,0.00,VWS V14.01,2013-03-13 20:27:00,
2013-03-13 14:28:00,52.1,24.6,30.48,WSW,249,8.0,13.0,34,0.00,,SKC,0.00,VWS V14.01,2013-03-13 20:28:00,
2013-03-13 14:29:00,52.1,24.6,30.48,West,259,15.0,17.0,34,0.00,,SKC,0.00,VWS V14.01,2013-03-13 20:29:00,
2013-03-13 14:30:00,52.1,24.6,30.48,West,259,15.0,17.0,34,0.00,,SKC,0.00,VWS V14.01,2013-03-13 20:30:00,
2013-03-13 14:31:00,52.1,24.6,30.48,WSW,244,10.0,13.0,34,0.00,,SKC,0.00,VWS V14.01,2013-03-13 20:31:00,
2013-03-13 14:32:00,52.0,24.5,30.48,West,260,10.0,12.0,34,0.00,,SKC,0.00,VWS V14.01,2013-03-13 20:32:00,
2013-03-13 14:33:00,52.1,24.6,30.48,North,360,12.0,13.0,34,0.00,,SKC,0.00,VWS V14.01,2013-03-13 20:33:00,
2013-03-13 14:34:00,52.2,24.0,30.48,West,275,13.0,13.0,33,0.00,,SKC,0.00,VWS V14.01,2013-03-13 20:34:00,
2013-03-13 14:35:00,52.2,24.0,30.48,West,275,13.0,13.0,33,0.00,,SKC,0.00,VWS V14.01,2013-03-13 20:35:00,
2013-03-13 14:36:00,52.3,24.8,30.48,West,259,6.0,14.0,34,0.00,,SKC,0.00,VWS V14.01,2013-03-13 20:36:00,
2013-03-13 14:37:00,52.4,24.9,30.48,WSW,247,9.0,15.0,34,0.00,,SKC,0.00,VWS V14.01,2013-03-13 20:37:00,
2013-03-13 14:38:00,52.5,24.2,30.48,SSW,198,10.0,10.0,33,0.00,,SKC,0.00,VWS V14.01,2013-03-13 20:38:00,
2013-03-13 14:39:00,52.6,24.3,30.48,South,176,11.0,11.0,33,0.00,,SKC,0.00,VWS V14.01,2013-03-13 20:39:00,
2013-03-13 14:40:00,52.6,24.3,30.48,South,176,11.0,11.0,33,0.00,,SKC,0.00,VWS V14.01,2013-03-13 20:40:00,
2013-03-13 14:41:00,52.8,25.2,30.48,SSW,196,10.0,11.0,34,0.00,,SKC,0.00,VWS V14.01,2013-03-13 20:41:00,
2013-03-13 14:42:00,52.9,24.6,30.47,North,360,8.0,14.0,33,0.00,,SKC,0.00,VWS V14.01,2013-03-13 20:42:00,
2013-03-13 14:43:00,52.9,24.6,30.47,SSW,210,11.0,15.0,33,0.00,,SKC,0.00,VWS V14.01,2013-03-13 20:43:00,
2013-03-13 14:44:00,52.9,24.6,30.47,SW,233,9.0,14.0,33,0.00,,SKC,0.00,VWS V14.01,2013-03-13 20:44:00,
2013-03-13 14:45:00,52.9,24.6,30.47,SW,233,9.0,14.0,33,0.00,,SKC,0.00,VWS V14.01,2013-03-13 20:45:00,
2013-03-13 14:46:00,52.9,23.9,30.47,WSW,244,9.0,9.0,32,0.00,,SKC,0.00,VWS V14.01,2013-03-13 20:46:00,
2013-03-13 14:47:00,52.8,24.5,30.47,SW,231,11.0,11.0,33,0.00,,SKC,0.00,VWS V14.01,2013-03-13 20:47:00,
2013-03-13 14:48:00,52.8,24.5,30.47,West,259,10.0,13.0,33,0.00,,SKC,0.00,VWS V14.01,2013-03-13 20:48:00,
2013-03-13 14:49:00,52.7,23.7,30.47,SW,221,14.0,16.0,32,0.00,,SKC,0.00,VWS V14.01,2013-03-13 20:49:00,
2013-03-13 14:50:00,52.7,23.7,30.47,SW,221,14.0,16.0,32,0.00,,SKC,0.00,VWS V14.01,2013-03-13 20:50:00,
2013-03-13 14:51:00,52.6,23.6,30.47,SSW,203,14.0,16.0,32,0.00,,SKC,0.00,VWS V14.01,2013-03-13 20:51:00,
2013-03-13 14:52:00,52.5,23.5,30.47,North,360,16.0,20.0,32,0.00,,SKC,0.00,VWS V14.01,2013-03-13 20:52:00,
2013-03-13 14:53:00,52.3,23.3,30.47,SSW,194,17.0,20.0,32,0.00,,SKC,0.00,VWS V14.01,2013-03-13 20:53:00,
2013-03-13 14:54:00,52.2,23.2,30.47,SSW,198,10.0,17.0,32,0.00,,SKC,0.00,VWS V14.01,2013-03-13 20:54:00,
2013-03-13 14:55:00,52.2,23.2,30.47,SSW,198,10.0,17.0,32,0.00,,SKC,0.00,VWS V14.01,2013-03-13 20:55:00,
2013-03-13 14:56:00,52.1,23.9,30.47,North,360,6.0,15.0,33,0.00,,SKC,0.00,VWS V14.01,2013-03-13 20:56:00,
2013-03-13 14:57:00,52.1,23.9,30.47,SSW,200,10.0,13.0,33,0.00,,SKC,0.00,VWS V14.01,2013-03-13 20:57:00,
2013-03-13 14:58:00,52.1,23.2,30.47,SW,234,11.0,12.0,32,0.00,,SKC,0.00,VWS V14.01,2013-03-13 20:58:00,
2013-03-13 14:59:00,52.1,23.9,30.47,SW,225,14.0,16.0,33,0.00,,SKC,0.00,VWS V14.01,2013-03-13 20:59:00,
2013-03-13 15:00:00,52.1,23.9,30.47,SW,225,14.0,16.0,33,0.00,,SKC,0.00,VWS V14.01,2013-03-13 21:00:00,
2013-03-13 15:01:00,52.2,23.2,30.47,SW,221,6.0,7.0,32,0.00,,SKC,0.00,VWS V14.01,2013-03-13 21:01:00,
2013-03-13 15:02:00,52.3,23.3,30.48,North,360,10.0,10.0,32,0.00,,SKC,0.00,VWS V14.01,2013-03-13 21:02:00,
2013-03-13 15:03:00,52.3,23.3,30.48,SSW,196,9.0,13.0,32,0.00,,SKC,0.00,VWS V14.01,2013-03-13 21:03:00,
2013-03-13 15:04:00,52.4,23.4,30.48,SSW,198,13.0,16.0,32,0.00,,SKC,0.00,VWS V14.01,2013-03-13 21:04:00,
2013-03-13 15:05:00,52.4,23.4,30.48,SSW,198,13.0,16.0,32,0.00,,SKC,0.00,VWS V14.01,2013-03-13 21:05:00,
2013-03-13 15:06:00,52.4,22.7,30.47,South,185,17.0,24.0,31,0.00,,SKC,0.00,VWS V14.01,2013-03-13 21:06:00,
2013-03-13 15:07:00,52.5,22.8,30.46,WSW,246,18.0,23.0,31,0.00,,SKC,0.00,VWS V14.01,2013-03-13 21:07:00,
2013-03-13 15:08:00,52.6,23.6,30.47,West,259,9.0,18.0,32,0.00,,SKC,0.00,VWS V14.01,2013-03-13 21:08:00,
2013-03-13 15:09:00,52.7,23.7,30.48,NW,307,12.0,13.0,32,0.00,,SKC,0.00,VWS V14.01,2013-03-13 21:09:00,
2013-03-13 15:10:00,52.7,23.7,30.48,NW,307,12.0,13.0,32,0.00,,SKC,0.00,VWS V14.01,2013-03-13 21:10:00,
2013-03-13 15:11:00,52.9,23.9,30.47,West,259,10.0,14.0,32,0.00,,SKC,0.00,VWS V14.01,2013-03-13 21:11:00,
2013-03-13 15:12:00,52.9,23.1,30.47,West,269,5.0,10.0,31,0.00,,SKC,0.00,VWS V14.01,2013-03-13 21:12:00,
2013-03-13 15:13:00,52.9,23.1,30.47,West,260,8.0,12.0,31,0.00,,SKC,0.00,VWS V14.01,2013-03-13 21:13:00,
2013-03-13 15:14:00,53.0,24.0,30.47,West,274,12.0,12.0,32,0.00,,SKC,0.00,VWS V14.01,2013-03-13 21:14:00,
2013-03-13 15:15:00,53.0,24.0,30.47,West,274,12.0,12.0,32,0.00,,SKC,0.00,VWS V14.01,2013-03-13 21:15:00,
2013-03-13 15:16:00,53.4,25.0,30.47,SSW,208,12.0,18.0,33,0.00,,SKC,0.00,VWS V14.01,2013-03-13 21:16:00,
2013-03-13 15:17:00,53.6,22.9,30.47,SSW,196,21.0,21.0,30,0.00,,SKC,0.00,VWS V14.01,2013-03-13 21:17:00,
2013-03-13 15:18:00,53.7,23.0,30.47,WSW,240,11.0,21.0,30,0.00,,SKC,0.00,VWS V14.01,2013-03-13 21:18:00,
2013-03-13 15:19:00,53.8,23.9,30.47,SW,224,15.0,22.0,31,0.00,,SKC,0.00,VWS V14.01,2013-03-13 21:19:00,
2013-03-13 15:20:00,53.8,23.9,30.47,SW,224,15.0,22.0,31,0.00,,SKC,0.00,VWS V14.01,2013-03-13 21:20:00,
2013-03-13 15:21:00,53.9,22.4,30.46,SW,225,19.0,20.0,29,0.00,,SKC,0.00,VWS V14.01,2013-03-13 21:21:00,
2013-03-13 15:22:00,53.8,23.1,30.46,WSW,242,21.0,22.0,30,0.00,,SKC,0.00,VWS V14.01,2013-03-13 21:22:00,
2013-03-13 15:23:00,53.7,23.0,30.46,North,360,14.0,24.0,30,0.00,,SKC,0.00,VWS V14.01,2013-03-13 21:23:00,
2013-03-13 15:24:00,53.7,23.0,30.46,SW,234,17.0,20.0,30,0.00,,SKC,0.00,VWS V14.01,2013-03-13 21:24:00,
2013-03-13 15:25:00,53.7,23.0,30.46,SW,234,17.0,20.0,30,0.00,,SKC,0.00,VWS V14.01,2013-03-13 21:25:00,
2013-03-13 15:26:00,53.7,23.0,30.46,SSW,207,17.0,20.0,30,0.00,,SKC,0.00,VWS V14.01,2013-03-13 21:26:00,
2013-03-13 15:27:00,53.6,22.1,30.46,SSW,206,10.0,20.0,29,0.00,,SKC,0.00,VWS V14.01,2013-03-13 21:27:00,
2013-03-13 15:28:00,53.6,22.1,30.46,SSW,209,11.0,17.0,29,0.00,,SKC,0.00,VWS V14.01,2013-03-13 21:28:00,
2013-03-13 15:29:00,53.5,22.0,30.46,SSW,213,16.0,20.0,29,0.00,,SKC,0.00,VWS V14.01,2013-03-13 21:29:00,
2013-03-13 15:30:00,53.4,22.0,30.46,SW,221,12.0,17.0,29,0.00,,SKC,0.00,VWS V14.01,2013-03-13 21:30:00,
2013-03-13 15:31:00,53.4,22.0,30.46,SW,221,12.0,17.0,29,0.00,,SKC,0.00,VWS V14.01,2013-03-13 21:31:00,
2013-03-13 15:32:00,53.6,22.9,30.46,West,263,16.0,23.0,30,0.00,,SKC,0.00,VWS V14.01,2013-03-13 21:32:00,
2013-03-13 15:33:00,53.7,23.0,30.46,North,360,24.0,26.0,30,0.00,,SKC,0.00,VWS V14.01,2013-03-13 21:33:00,
2013-03-13 15:34:00,53.7,21.4,30.47,WSW,248,18.0,24.0,28,0.00,,SKC,0.00,VWS V14.01,2013-03-13 21:34:00,
2013-03-13 15:35:00,53.6,22.9,30.45,West,260,10.0,19.0,30,0.00,,SKC,0.00,VWS V14.01,2013-03-13 21:35:00,
2013-03-13 15:36:00,53.6,22.9,30.45,West,260,10.0,19.0,30,0.00,,SKC,0.00,VWS V14.01,2013-03-13 21:36:00,
2013-03-13 15:37:00,53.7,23.0,30.45,WSW,241,16.0,27.0,30,0.00,,SKC,0.00,VWS V14.01,2013-03-13 21:37:00,
2013-03-13 15:38:00,53.7,22.2,30.45,West,262,29.0,30.0,29,0.00,,SKC,0.00,VWS V14.01,2013-03-13 21:38:00,
2013-03-13 15:39:00,53.6,22.9,30.45,WSW,246,15.0,29.0,30,0.00,,SKC,0.00,VWS V14.01,2013-03-13 21:39:00,
2013-03-13 15:40:00,53.6,22.1,30.45,WSW,243,20.0,26.0,29,0.00,,SKC,0.00,VWS V14.01,2013-03-13 21:40:00,
2013-03-13 15:41:00,53.6,22.1,30.45,WSW,243,20.0,26.0,29,0.00,,SKC,0.00,VWS V14.01,2013-03-13 21:41:00,
2013-03-13 15:42:00,53.5,22.0,30.45,WSW,239,20.0,22.0,29,0.00,,SKC,0.00,VWS V14.01,2013-03-13 21:42:00,
2013-03-13 15:43:00,53.6,22.9,30.45,WSW,257,14.0,27.0,30,0.00,,SKC,0.00,VWS V14.01,2013-03-13 21:43:00,
2013-03-13 15:44:00,53.6,22.1,30.45,West,263,24.0,24.0,29,0.00,,SKC,0.00,VWS V14.01,2013-03-13 21:44:00,
2013-03-13 15:45:00,53.7,22.2,30.45,West,259,17.0,25.0,29,0.00,,SKC,0.00,VWS V14.01,2013-03-13 21:45:00,
2013-03-13 15:46:00,53.7,22.2,30.45,West,259,17.0,25.0,29,0.00,,SKC,0.00,VWS V14.01,2013-03-13 21:46:00,
2013-03-13 15:47:00,53.6,22.1,30.45,WSW,254,21.0,22.0,29,0.00,,SKC,0.00,VWS V14.01,2013-03-13 21:47:00,
2013-03-13 15:48:00,53.5,22.0,30.44,WSW,240,17.0,29.0,29,0.00,,SKC,0.00,VWS V14.01,2013-03-13 21:48:00,
2013-03-13 15:49:00,53.3,21.0,30.44,SW,225,19.0,25.0,28,0.00,,SKC,0.00,VWS V14.01,2013-03-13 21:49:00,
2013-03-13 15:50:00,53.2,21.8,30.44,WSW,240,19.0,26.0,29,0.00,,SKC,0.00,VWS V14.01,2013-03-13 21:50:00,
2013-03-13 15:51:00,53.2,21.8,30.44,WSW,240,19.0,26.0,29,0.00,,SKC,0.00,VWS V14.01,2013-03-13 21:51:00,
2013-03-13 15:52:00,53.3,21.9,30.45,North,360,20.0,25.0,29,0.00,,SKC,0.00,VWS V14.01,2013-03-13 21:52:00,
2013-03-13 15:53:00,53.4,22.0,30.45,SW,221,19.0,31.0,29,0.00,,SKC,0.00,VWS V14.01,2013-03-13 21:53:00,
2013-03-13 15:54:00,53.4,22.0,30.45,SSW,210,20.0,24.0,29,0.00,,SKC,0.00,VWS V14.01,2013-03-13 21:54:00,
2013-03-13 15:55:00,53.3,21.0,30.45,SW,227,16.0,26.0,28,0.00,,SKC,0.00,VWS V14.01,2013-03-13 21:55:00,
2013-03-13 15:56:00,53.3,21.9,30.45,North,360,22.0,22.0,29,0.00,,SKC,0.00,VWS V14.01,2013-03-13 21:56:00,
2013-03-13 15:57:00,53.3,21.9,30.45,North,360,22.0,22.0,29,0.00,,SKC,0.00,VWS V14.01,2013-03-13 21:57:00,
2013-03-13 15:58:00,53.3,21.9,30.45,SSW,207,17.0,20.0,29,0.00,,SKC,0.00,VWS V14.01,2013-03-13 21:58:00,
2013-03-13 15:59:00,53.4,22.0,30.45,WSW,247,16.0,18.0,29,0.00,,SKC,0.00,VWS V14.01,2013-03-13 21:59:00,
2013-03-13 16:00:00,53.4,21.1,30.45,WSW,248,24.0,29.0,28,0.00,,SKC,0.00,VWS V14.01,2013-03-13 22:00:00,
2013-03-13 16:01:00,53.4,22.0,30.45,WSW,248,15.0,24.0,29,0.00,,SKC,0.00,VWS V14.01,2013-03-13 22:01:00,
2013-03-13 16:02:00,53.5,21.2,30.45,West,259,18.0,23.0,28,0.00,,SKC,0.00,VWS V14.01,2013-03-13 22:02:00,
2013-03-13 16:03:00,53.5,21.2,30.45,West,259,18.0,23.0,28,0.00,,SKC,0.00,VWS V14.01,2013-03-13 22:03:00,
2013-03-13 16:04:00,53.5,22.0,30.45,WSW,248,20.0,22.0,29,0.00,,SKC,0.00,VWS V14.01,2013-03-13 22:04:00,
2013-03-13 16:05:00,53.5,21.2,30.45,West,263,27.0,30.0,28,0.00,,SKC,0.00,VWS V14.01,2013-03-13 22:05:00,
2013-03-13 16:08:00,53.2,21.0,30.44,West,263,15.0,28.0,28,0.00,,SKC,0.00,VWS V14.01,2013-03-13 22:08:00,
2013-03-13 16:09:00,53.2,21.0,30.44,West,263,15.0,28.0,28,0.00,,SKC,0.00,VWS V14.01,2013-03-13 22:09:00,
2013-03-13 16:10:00,53.0,20.8,30.45,WSW,246,24.0,29.0,28,0.00,,SKC,0.00,VWS V14.01,2013-03-13 22:10:00,
2013-03-13 16:11:00,53.0,21.6,30.45,West,274,19.0,24.0,29,0.00,,SKC,0.00,VWS V14.01,2013-03-13 22:11:00,
2013-03-13 16:12:00,53.0,21.6,30.45,West,259,20.0,31.0,29,0.00,,SKC,0.00,VWS V14.01,2013-03-13 22:12:00,
2013-03-13 16:13:00,53.0,21.6,30.45,WSW,242,17.0,22.0,29,0.00,,SKC,0.00,VWS V14.01,2013-03-13 22:13:00,
2013-03-13 16:14:00,53.0,21.6,30.45,WSW,242,17.0,22.0,29,0.00,,SKC,0.00,VWS V14.01,2013-03-13 22:14:00,
2013-03-13 16:15:00,53.1,20.9,30.45,North,360,16.0,28.0,28,0.00,,SKC,0.00,VWS V14.01,2013-03-13 22:15:00,
2013-03-13 16:16:00,53.1,20.9,30.45,SW,223,21.0,36.0,28,0.00,,SKC,0.00,VWS V14.01,2013-03-13 22:16:00,
2013-03-13 16:17:00,53.0,19.9,30.44,West,280,22.0,22.0,27,0.00,,SKC,0.00,VWS V14.01,2013-03-13 22:17:00,
2013-03-13 16:18:00,52.9,20.7,30.45,WSW,248,23.0,30.0,28,0.00,,SKC,0.00,VWS V14.01,2013-03-13 22:18:00,
2013-03-13 16:19:00,52.9,20.7,30.45,WSW,248,23.0,30.0,28,0.00,,SKC,0.00,VWS V14.01,2013-03-13 22:19:00,
2013-03-13 16:20:00,52.9,20.7,30.44,North,360,23.0,32.0,28,0.00,,SKC,0.00,VWS V14.01,2013-03-13 22:20:00,
2013-03-13 16:21:00,52.9,20.7,30.44,West,263,21.0,25.0,28,0.00,,SKC,0.00,VWS V14.01,2013-03-13 22:21:00,
2013-03-13 16:22:00,52.8,19.8,30.44,SW,233,18.0,27.0,27,0.00,,SKC,0.00,VWS V14.01,2013-03-13 22:22:00,
2013-03-13 16:23:00,52.8,19.8,30.44,West,261,28.0,28.0,27,0.00,,SKC,0.00,VWS V14.01,2013-03-13 22:23:00,
2013-03-13 16:24:00,52.8,19.8,30.44,West,261,28.0,28.0,27,0.00,,SKC,0.00,VWS V14.01,2013-03-13 22:24:00,
2013-03-13 16:25:00,52.8,20.6,30.44,WSW,248,30.0,33.0,28,0.00,,SKC,0.00,VWS V14.01,2013-03-13 22:25:00,
2013-03-13 16:26:00,52.8,20.6,30.44,WSW,243,22.0,32.0,28,0.00,,SKC,0.00,VWS V14.01,2013-03-13 22:26:00,
2013-03-13 16:27:00,52.8,20.6,30.44,WSW,248,16.0,22.0,28,0.00,,SKC,0.00,VWS V14.01,2013-03-13 22:27:00,
2013-03-13 16:28:00,52.8,20.6,30.44,SW,233,22.0,30.0,28,0.00,,SKC,0.00,VWS V14.01,2013-03-13 22:28:00,
2013-03-13 16:29:00,52.8,20.6,30.44,SW,233,22.0,30.0,28,0.00,,SKC,0.00,VWS V14.01,2013-03-13 22:29:00,
2013-03-13 16:30:00,52.9,20.7,30.45,WSW,249,20.0,28.0,28,0.00,,SKC,0.00,VWS V14.01,2013-03-13 22:30:00,
2013-03-13 16:31:00,52.9,20.7,30.44,West,263,24.0,27.0,28,0.00,,SKC,0.00,VWS V14.01,2013-03-13 22:31:00,
2013-03-13 16:32:00,52.9,19.0,30.44,WSW,250,18.0,32.0,26,0.00,,SKC,0.00,VWS V14.01,2013-03-13 22:32:00,
2013-03-13 16:33:00,52.9,19.9,30.44,SW,218,25.0,30.0,27,0.00,,SKC,0.00,VWS V14.01,2013-03-13 22:33:00,
2013-03-13 16:34:00,52.9,19.9,30.44,SW,218,25.0,30.0,27,0.00,,SKC,0.00,VWS V14.01,2013-03-13 22:34:00,
2013-03-13 16:35:00,52.8,18.9,30.44,West,281,28.0,31.0,26,0.00,,SKC,0.00,VWS V14.01,2013-03-13 22:35:00,
2013-03-13 16:36:00,52.8,20.6,30.45,West,261,20.0,28.0,28,0.00,,SKC,0.00,VWS V14.01,2013-03-13 22:36:00,
2013-03-13 16:37:00,52.8,20.6,30.44,West,261,18.0,25.0,28,0.00,,SKC,0.00,VWS V14.01,2013-03-13 22:37:00,
2013-03-13 16:38:00,52.8,19.8,30.44,WSW,246,17.0,22.0,27,0.00,,SKC,0.00,VWS V14.01,2013-03-13 22:38:00,
2013-03-13 16:39:00,52.7,20.5,30.44,WSW,238,19.0,20.0,28,0.00,,SKC,0.00,VWS V14.01,2013-03-13 22:39:00,
2013-03-13 16:40:00,52.7,20.5,30.44,WSW,238,19.0,20.0,28,0.00,,SKC,0.00,VWS V14.01,2013-03-13 22:40:00,
2013-03-13 16:41:00,52.6,19.6,30.44,West,260,22.0,25.0,27,0.00,,SKC,0.00,VWS V14.01,2013-03-13 22:41:00,
2013-03-13 16:42:00,52.4,19.4,30.44,WSW,252,24.0,28.0,27,0.00,,SKC,0.00,VWS V14.01,2013-03-13 22:42:00,
2013-03-13 16:43:00,52.1,19.2,30.44,WSW,246,21.0,26.0,27,0.00,,SKC,0.00,VWS V14.01,2013-03-13 22:43:00,
2013-03-13 16:44:00,51.8,18.9,30.43,WSW,244,20.0,28.0,27,0.00,,SKC,0.00,VWS V14.01,2013-03-13 22:44:00,
2013-03-13 16:45:00,51.5,18.6,30.44,West,277,16.0,22.0,27,0.00,,SKC,0.00,VWS V14.01,2013-03-13 22:45:00,
2013-03-13 16:46:00,51.5,18.6,30.44,West,277,16.0,22.0,27,0.00,,SKC,0.00,VWS V14.01,2013-03-13 22:46:00,
2013-03-13 16:47:00,51.1,19.1,30.44,WSW,237,13.0,19.0,28,0.00,,SKC,0.00,VWS V14.01,2013-03-13 22:47:00,
2013-03-13 16:48:00,50.9,19.0,30.44,West,268,19.0,20.0,28,0.00,,SKC,0.00,VWS V14.01,2013-03-13 22:48:00,
2013-03-13 16:49:00,50.7,19.6,30.44,North,360,21.0,25.0,29,0.00,,SKC,0.00,VWS V14.01,2013-03-13 22:49:00,
2013-03-13 16:50:00,50.6,18.7,30.44,West,278,21.0,24.0,28,0.00,,SKC,0.00,VWS V14.01,2013-03-13 22:50:00,
2013-03-13 16:51:00,50.5,19.5,30.44,SW,232,23.0,25.0,29,0.00,,SKC,0.00,VWS V14.01,2013-03-13 22:51:00,
2013-03-13 16:52:00,50.5,19.5,30.44,SW,232,23.0,25.0,29,0.00,,SKC,0.00,VWS V14.01,2013-03-13 22:52:00,
2013-03-13 16:53:00,50.5,19.5,30.44,WSW,254,25.0,30.0,29,0.00,,SKC,0.00,VWS V14.01,2013-03-13 22:53:00,
2013-03-13 16:54:00,50.5,18.6,30.43,WSW,256,21.0,28.0,28,0.00,,SKC,0.00,VWS V14.01,2013-03-13 22:54:00,
2013-03-13 16:55:00,50.5,18.6,30.43,SW,233,26.0,26.0,28,0.00,,SKC,0.00,VWS V14.01,2013-03-13 22:55:00,
2013-03-13 16:56:00,50.5,17.8,30.43,SSW,210,17.0,27.0,27,0.00,,SKC,0.00,VWS V14.01,2013-03-13 22:56:00,
2013-03-13 16:57:00,50.5,17.8,30.43,SSW,210,17.0,27.0,27,0.00,,SKC,0.00,VWS V14.01,2013-03-13 22:57:00,
2013-03-13 16:58:00,50.4,18.5,30.43,SW,224,22.0,28.0,28,0.00,,SKC,0.00,VWS V14.01,2013-03-13 22:58:00,
2013-03-13 16:59:00,50.3,18.5,30.43,WSW,237,24.0,24.0,28,0.00,,SKC,0.00,VWS V14.01,2013-03-13 22:59:00,
2013-03-13 17:00:00,50.3,18.5,30.43,WSW,253,24.0,28.0,28,0.00,,SKC,0.00,VWS V14.01,2013-03-13 23:00:00,
2013-03-13 17:01:00,50.1,18.3,30.44,WSW,250,28.0,28.0,28,0.00,,SKC,0.00,VWS V14.01,2013-03-13 23:01:00,
2013-03-13 17:02:00,50.1,18.3,30.44,WSW,250,28.0,28.0,28,0.00,,SKC,0.00,VWS V14.01,2013-03-13 23:02:00,
2013-03-13 17:03:00,49.9,18.9,30.44,WSW,250,21.0,24.0,29,0.00,,SKC,0.00,VWS V14.01,2013-03-13 23:03:00,
2013-03-13 17:04:00,49.8,18.8,30.44,West,268,17.0,29.0,29,0.00,,SKC,0.00,VWS V14.01,2013-03-13 23:04:00,
2013-03-13 17:05:00,49.7,17.9,30.43,WSW,254,21.0,26.0,28,0.00,,SKC,0.00,VWS V14.01,2013-03-13 23:05:00,
2013-03-13 17:06:00,49.7,18.8,30.44,West,259,18.0,28.0,29,0.00,,SKC,0.00,VWS V14.01,2013-03-13 23:06:00,
2013-03-13 17:07:00,49.7,18.8,30.44,West,259,18.0,28.0,29,0.00,,SKC,0.00,VWS V14.01,2013-03-13 23:07:00,
2013-03-13 17:08:00,49.6,18.7,30.44,WSW,248,17.0,22.0,29,0.00,,SKC,0.00,VWS V14.01,2013-03-13 23:08:00,
2013-03-13 17:09:00,49.5,18.6,30.44,SW,236,22.0,25.0,29,0.00,,SKC,0.00,VWS V14.01,2013-03-13 23:09:00,
2013-03-13 17:10:00,49.5,18.6,30.44,SW,217,14.0,22.0,29,0.00,,SKC,0.00,VWS V14.01,2013-03-13 23:10:00,
2013-03-13 17:11:00,49.5,18.6,30.44,West,262,16.0,18.0,29,0.00,,SKC,0.00,VWS V14.01,2013-03-13 23:11:00,
2013-03-13 17:12:00,49.5,18.6,30.44,West,262,16.0,18.0,29,0.00,,SKC,0.00,VWS V14.01,2013-03-13 23:12:00,
2013-03-13 17:13:00,49.4,18.5,30.44,WSW,245,17.0,24.0,29,0.00,,SKC,0.00,VWS V14.01,2013-03-13 23:13:00,
2013-03-13 17:14:00,49.4,18.5,30.44,WSW,251,17.0,22.0,29,0.00,,SKC,0.00,VWS V14.01,2013-03-13 23:14:00,
2013-03-13 17:15:00,49.3,18.4,30.44,North,360,19.0,19.0,29,0.00,,SKC,0.00,VWS V14.01,2013-03-13 23:15:00,
2013-03-13 17:16:00,49.3,19.2,30.44,North,360,18.0,22.0,30,0.00,,SKC,0.00,VWS V14.01,2013-03-13 23:16:00,
2013-03-13 17:17:00,49.2,19.1,30.44,WSW,242,17.0,24.0,30,0.00,,SKC,0.00,VWS V14.01,2013-03-13 23:17:00,
2013-03-13 17:18:00,49.2,19.1,30.44,WSW,242,17.0,24.0,30,0.00,,SKC,0.00,VWS V14.01,2013-03-13 23:18:00,
2013-03-13 17:19:00,49.2,19.1,30.44,North,360,17.0,20.0,30,0.00,,SKC,0.00,VWS V14.01,2013-03-13 23:19:00,
2013-03-13 17:20:00,49.2,19.1,30.44,WSW,252,11.0,19.0,30,0.00,,SKC,0.00,VWS V14.01,2013-03-13 23:20:00,
2013-03-13 17:21:00,49.2,19.1,30.44,West,275,15.0,23.0,30,0.00,,SKC,0.00,VWS V14.01,2013-03-13 23:21:00,
2013-03-13 17:22:00,49.2,19.1,30.45,North,360,16.0,19.0,30,0.00,,SKC,0.00,VWS V14.01,2013-03-13 23:22:00,
2013-03-13 17:23:00,49.2,19.1,30.45,North,360,16.0,19.0,30,0.00,,SKC,0.00,VWS V14.01,2013-03-13 23:23:00,
2013-03-13 17:24:00,49.2,19.1,30.44,West,267,10.0,15.0,30,0.00,,SKC,0.00,VWS V14.01,2013-03-13 23:24:00,
2013-03-13 17:25:00,49.2,19.1,30.44,North,360,16.0,16.0,30,0.00,,SKC,0.00,VWS V14.01,2013-03-13 23:25:00,
2013-03-13 17:26:00,49.2,19.1,30.45,West,271,19.0,21.0,30,0.00,,SKC,0.00,VWS V14.01,2013-03-13 23:26:00,
2013-03-13 17:27:00,49.3,19.2,30.45,North,360,20.0,24.0,30,0.00,,SKC,0.00,VWS V14.01,2013-03-13 23:27:00,
2013-03-13 17:28:00,49.3,19.2,30.45,North,360,20.0,24.0,30,0.00,,SKC,0.00,VWS V14.01,2013-03-13 23:28:00,
2013-03-13 17:29:00,49.4,18.5,30.45,North,360,20.0,26.0,29,0.00,,SKC,0.00,VWS V14.01,2013-03-13 23:29:00,
2013-03-13 17:30:00,49.6,19.5,30.44,West,276,28.0,33.0,30,0.00,,SKC,0.00,VWS V14.01,2013-03-13 23:30:00,
2013-03-13 17:31:00,49.8,18.8,30.45,West,280,15.0,33.0,29,0.00,,SKC,0.00,VWS V14.01,2013-03-13 23:31:00,
2013-03-13 17:32:00,49.9,18.9,30.45,WNW,287,20.0,23.0,29,0.00,,SKC,0.00,VWS V14.01,2013-03-13 23:32:00,
2013-03-13 17:33:00,49.9,18.9,30.45,WNW,287,20.0,23.0,29,0.00,,SKC,0.00,VWS V14.01,2013-03-13 23:33:00,
2013-03-13 17:34:00,50.3,19.3,30.45,West,271,18.0,22.0,29,0.00,,SKC,0.00,VWS V14.01,2013-03-13 23:34:00,
2013-03-13 17:35:00,50.5,20.2,30.45,WSW,247,14.0,18.0,30,0.00,,SKC,0.00,VWS V14.01,2013-03-13 23:35:00,
2013-03-13 17:36:00,50.6,19.5,30.45,West,273,19.0,20.0,29,0.00,,SKC,0.00,VWS V14.01,2013-03-13 23:36:00,
2013-03-13 17:37:00,50.8,19.7,30.45,WSW,256,12.0,25.0,29,0.00,,SKC,0.00,VWS V14.01,2013-03-13 23:37:00,
2013-03-13 17:38:00,50.8,19.7,30.45,WSW,256,12.0,25.0,29,0.00,,SKC,0.00,VWS V14.01,2013-03-13 23:38:00,
2013-03-13 17:39:00,51.1,20.0,30.45,West,259,13.0,25.0,29,0.00,,SKC,0.00,VWS V14.01,2013-03-13 23:39:00,
2013-03-13 17:40:00,51.3,19.3,30.44,West,261,14.0,23.0,28,0.00,,SKC,0.00,VWS V14.01,2013-03-13 23:40:00,
2013-03-13 17:41:00,51.3,19.3,30.45,SW,230,22.0,24.0,28,0.00,,SKC,0.00,VWS V14.01,2013-03-13 23:41:00,
2013-03-13 17:42:00,51.4,19.4,30.45,West,272,13.0,22.0,28,0.00,,SKC,0.00,VWS V14.01,2013-03-13 23:42:00,
2013-03-13 17:43:00,51.4,19.4,30.45,SW,236,17.0,21.0,28,0.00,,SKC,0.00,VWS V14.01,2013-03-13 23:43:00,
2013-03-13 17:44:00,51.4,19.4,30.45,SW,236,17.0,21.0,28,0.00,,SKC,0.00,VWS V14.01,2013-03-13 23:44:00,
2013-03-13 17:45:00,51.5,19.5,30.45,WSW,246,12.0,18.0,28,0.00,,SKC,0.00,VWS V14.01,2013-03-13 23:45:00,
2013-03-13 17:46:00,51.4,18.6,30.45,SW,223,13.0,18.0,27,0.00,,SKC,0.00,VWS V14.01,2013-03-13 23:46:00,
2013-03-13 17:47:00,51.4,19.4,30.45,North,360,15.0,18.0,28,0.00,,SKC,0.00,VWS V14.01,2013-03-13 23:47:00,
2013-03-13 17:48:00,51.4,20.2,30.45,WNW,288,18.0,19.0,29,0.00,,SKC,0.00,VWS V14.01,2013-03-13 23:48:00,
2013-03-13 17:49:00,51.4,20.2,30.45,WNW,288,18.0,19.0,29,0.00,,SKC,0.00,VWS V14.01,2013-03-13 23:49:00,
2013-03-13 17:50:00,51.5,18.6,30.45,West,265,14.0,20.0,27,0.00,,SKC,0.00,VWS V14.01,2013-03-13 23:50:00,
2013-03-13 17:51:00,51.5,19.5,30.45,West,267,16.0,16.0,28,0.00,,SKC,0.00,VWS V14.01,2013-03-13 23:51:00,
2013-03-13 17:52:00,51.5,20.3,30.46,North,360,20.0,21.0,29,0.00,,SKC,0.00,VWS V14.01,2013-03-13 23:52:00,
2013-03-13 17:53:00,51.5,19.5,30.45,WSW,246,15.0,21.0,28,0.00,,SKC,0.00,VWS V14.01,2013-03-13 23:53:00,
2013-03-13 17:54:00,51.5,19.5,30.45,WSW,246,15.0,21.0,28,0.00,,SKC,0.00,VWS V14.01,2013-03-13 23:54:00,
2013-03-13 17:55:00,51.5,19.5,30.45,WSW,245,12.0,16.0,28,0.00,,SKC,0.00,VWS V14.01,2013-03-13 23:55:00,
2013-03-13 17:56:00,51.6,19.6,30.45,West,265,20.0,20.0,28,0.00,,SKC,0.00,VWS V14.01,2013-03-13 23:56:00,
2013-03-13 17:57:00,51.6,19.6,30.45,SW,218,14.0,23.0,28,0.00,,SKC,0.00,VWS V14.01,2013-03-13 23:57:00,
2013-03-13 17:58:00,51.5,19.5,30.45,West,259,16.0,17.0,28,0.00,,SKC,0.00,VWS V14.01,2013-03-13 23:58:00,
2013-03-13 17:59:00,51.5,19.5,30.45,West,259,16.0,17.0,28,0.00,,SKC,0.00,VWS V14.01,2013-03-13 23:59:00,
2013-03-13 18:00:00,51.4,19.4,30.46,WSW,251,14.0,22.0,28,0.00,,SKC,0.00,VWS V14.01,2013-03-14 00:00:00,
2013-03-13 18:01:00,51.4,19.4,30.45,WSW,250,16.0,22.0,28,0.00,,SKC,0.00,VWS V14.01,2013-03-14 00:01:00,
2013-03-13 18:02:00,51.4,19.4,30.45,WSW,250,20.0,23.0,28,0.00,,SKC,0.00,VWS V14.01,2013-03-14 00:02:00,
2013-03-13 18:03:00,51.3,19.3,30.45,WSW,248,24.0,24.0,28,0.00,,SKC,0.00,VWS V14.01,2013-03-14 00:03:00,
2013-03-13 18:04:00,51.2,19.2,30.45,North,360,15.0,24.0,28,0.00,,SKC,0.00,VWS V14.01,2013-03-14 00:04:00,
2013-03-13 18:05:00,51.2,19.2,30.45,North,360,15.0,24.0,28,0.00,,SKC,0.00,VWS V14.01,2013-03-14 00:05:00,
2013-03-13 18:06:00,51.1,19.1,30.45,SW,234,23.0,27.0,28,0.00,,SKC,0.00,VWS V14.01,2013-03-14 00:06:00,
2013-03-13 18:07:00,51.0,19.1,30.45,West,263,19.0,23.0,28,0.00,,SKC,0.00,VWS V14.01,2013-03-14 00:07:00,
2013-03-13 18:08:00,50.9,19.0,30.44,WSW,254,22.0,26.0,28,0.00,,SKC,0.00,VWS V14.01,2013-03-14 00:08:00,
2013-03-13 18:09:00,50.8,18.9,30.44,WSW,252,25.0,26.0,28,0.00,,SKC,0.00,VWS V14.01,2013-03-14 00:09:00,
2013-03-13 18:10:00,50.8,18.9,30.44,WSW,252,25.0,26.0,28,0.00,,SKC,0.00,VWS V14.01,2013-03-14 00:10:00,
2013-03-13 18:11:00,50.6,18.7,30.44,West,264,22.0,23.0,28,0.00,,SKC,0.00,VWS V14.01,2013-03-14 00:11:00,
2013-03-13 18:12:00,50.6,19.5,30.44,North,360,23.0,26.0,29,0.00,,SKC,0.00,VWS V14.01,2013-03-14 00:12:00,
2013-03-13 18:13:00,50.5,18.6,30.44,North,360,28.0,28.0,28,0.00,,SKC,0.00,VWS V14.01,2013-03-14 00:13:00,
2013-03-13 18:14:00,50.4,19.4,30.45,WSW,242,25.0,28.0,29,0.00,,SKC,0.00,VWS V14.01,2013-03-14 00:14:00,
2013-03-13 18:15:00,50.3,19.3,30.44,WSW,250,27.0,27.0,29,0.00,,SKC,0.00,VWS V14.01,2013-03-14 00:15:00,
2013-03-13 18:16:00,50.3,19.3,30.44,WSW,250,27.0,27.0,29,0.00,,SKC,0.00,VWS V14.01,2013-03-14 00:16:00,
2013-03-13 18:17:00,50.2,19.2,30.44,WSW,248,13.0,27.0,29,0.00,,SKC,0.00,VWS V14.01,2013-03-14 00:17:00,
2013-03-13 18:18:00,50.2,19.2,30.44,WSW,246,17.0,21.0,29,0.00,,SKC,0.00,VWS V14.01,2013-03-14 00:18:00,
2013-03-13 18:19:00,50.2,19.2,30.44,West,265,12.0,19.0,29,0.00,,SKC,0.00,VWS V14.01,2013-03-14 00:19:00,
2013-03-13 18:20:00,50.1,19.1,30.44,WSW,248,18.0,24.0,29,0.00,,SKC,0.00,VWS V14.01,2013-03-14 00:20:00,
2013-03-13 18:21:00,50.1,19.1,30.44,WSW,248,18.0,24.0,29,0.00,,SKC,0.00,VWS V14.01,2013-03-14 00:21:00,
2013-03-13 18:22:00,50.0,19.0,30.44,WSW,244,20.0,24.0,29,0.00,,SKC,0.00,VWS V14.01,2013-03-14 00:22:00,
2013-03-13 18:23:00,50.0,19.0,30.44,WSW,257,20.0,23.0,29,0.00,,SKC,0.00,VWS V14.01,2013-03-14 00:23:00,
2013-03-13 18:24:00,50.0,19.0,30.44,WSW,253,20.0,23.0,29,0.00,,SKC,0.00,VWS V14.01,2013-03-14 00:24:00,
2013-03-13 18:25:00,49.9,18.9,30.44,North,360,21.0,24.0,29,0.00,,SKC,0.00,VWS V14.01,2013-03-14 00:25:00,
2013-03-13 18:26:00,49.9,18.9,30.44,North,360,21.0,24.0,29,0.00,,SKC,0.00,VWS V14.01,2013-03-14 00:26:00,
2013-03-13 18:27:00,49.7,18.8,30.44,WSW,240,22.0,26.0,29,0.00,,SKC,0.00,VWS V14.01,2013-03-14 00:27:00,
2013-03-13 18:28:00,49.6,18.7,30.44,WSW,251,25.0,28.0,29,0.00,,SKC,0.00,VWS V14.01,2013-03-14 00:28:00,
2013-03-13 18:29:00,49.5,19.4,30.44,WSW,245,19.0,25.0,30,0.00,,SKC,0.00,VWS V14.01,2013-03-14 00:29:00,
2013-03-13 18:30:00,49.4,19.3,30.44,SW,234,22.0,23.0,30,0.00,,SKC,0.00,VWS V14.01,2013-03-14 00:30:00,
2013-03-13 18:31:00,49.2,19.1,30.44,WSW,252,19.0,23.0,30,0.00,,SKC,0.00,VWS V14.01,2013-03-14 00:31:00,
2013-03-13 18:32:00,49.2,19.1,30.44,WSW,252,19.0,23.0,30,0.00,,SKC,0.00,VWS V14.01,2013-03-14 00:32:00,
2013-03-13 18:33:00,49.0,18.9,30.44,West,281,16.0,22.0,30,0.00,,SKC,0.00,VWS V14.01,2013-03-14 00:33:00,
2013-03-13 18:34:00,48.8,18.8,30.44,WSW,248,15.0,17.0,30,0.00,,SKC,0.00,VWS V14.01,2013-03-14 00:34:00,
2013-03-13 18:35:00,48.7,19.4,30.44,WSW,246,23.0,25.0,31,0.00,,SKC,0.00,VWS V14.01,2013-03-14 00:35:00,
2013-03-13 18:36:00,48.6,19.4,30.44,North,360,17.0,23.0,31,0.00,,SKC,0.00,VWS V14.01,2013-03-14 00:36:00,
2013-03-13 18:37:00,48.6,19.4,30.44,North,360,17.0,23.0,31,0.00,,SKC,0.00,VWS V14.01,2013-03-14 00:37:00,
2013-03-13 18:38:00,48.4,19.2,30.44,WSW,249,18.0,19.0,31,0.00,,SKC,0.00,VWS V14.01,2013-03-14 00:38:00,
2013-03-13 18:39:00,48.3,19.1,30.44,North,360,20.0,20.0,31,0.00,,SKC,0.00,VWS V14.01,2013-03-14 00:39:00,
2013-03-13 18:40:00,48.2,19.0,30.44,North,360,20.0,24.0,31,0.00,,SKC,0.00,VWS V14.01,2013-03-14 00:40:00,
2013-03-13 18:41:00,48.2,19.0,30.44,WSW,251,19.0,23.0,31,0.00,,SKC,0.00,VWS V14.01,2013-03-14 00:41:00,
2013-03-13 18:42:00,48.1,18.9,30.44,WSW,246,19.0,21.0,31,0.00,,SKC,0.00,VWS V14.01,2013-03-14 00:42:00,
2013-03-13 18:43:00,48.1,18.9,30.44,WSW,246,19.0,21.0,31,0.00,,SKC,0.00,VWS V14.01,2013-03-14 00:43:00,
2013-03-13 18:44:00,48.0,18.8,30.44,West,277,18.0,19.0,31,0.00,,SKC,0.00,VWS V14.01,2013-03-14 00:44:00,
2013-03-13 18:45:00,47.9,18.7,30.44,WSW,242,19.0,21.0,31,0.00,,SKC,0.00,VWS V14.01,2013-03-14 00:45:00,
2013-03-13 18:46:00,47.8,19.4,30.44,WNW,286,18.0,22.0,32,0.00,,SKC,0.00,VWS V14.01,2013-03-14 00:46:00,
2013-03-13 18:47:00,47.8,19.4,30.44,West,269,14.0,22.0,32,0.00,,SKC,0.00,VWS V14.01,2013-03-14 00:47:00,
2013-03-13 18:48:00,47.8,19.4,30.44,West,269,14.0,22.0,32,0.00,,SKC,0.00,VWS V14.01,2013-03-14 00:48:00,
2013-03-13 18:49:00,47.6,19.2,30.44,WSW,239,17.0,26.0,32,0.00,,SKC,0.00,VWS V14.01,2013-03-14 00:49:00,
2013-03-13 18:50:00,47.6,19.2,30.44,WSW,246,18.0,19.0,32,0.00,,SKC,0.00,VWS V14.01,2013-03-14 00:50:00,
2013-03-13 18:51:00,47.6,19.2,30.44,WSW,254,18.0,23.0,32,0.00,,SKC,0.00,VWS V14.01,2013-03-14 00:51:00,
2013-03-13 18:52:00,47.5,19.1,30.43,North,360,21.0,24.0,32,0.00,,SKC,0.00,VWS V14.01,2013-03-14 00:52:00,
2013-03-13 18:53:00,47.5,19.1,30.43,North,360,21.0,24.0,32,0.00,,SKC,0.00,VWS V14.01,2013-03-14 00:53:00,
2013-03-13 18:54:00,47.4,19.0,30.43,West,265,24.0,28.0,32,0.00,,SKC,0.00,VWS V14.01,2013-03-14 00:54:00,
2013-03-13 18:55:00,47.4,19.0,30.43,North,360,20.0,29.0,32,0.00,,SKC,0.00,VWS V14.01,2013-03-14 00:55:00,
2013-03-13 18:56:00,47.4,19.8,30.43,North,360,24.0,25.0,33,0.00,,SKC,0.00,VWS V14.01,2013-03-14 00:56:00,
2013-03-13 18:57:00,47.4,19.0,30.43,North,360,21.0,24.0,32,0.00,,SKC,0.00,VWS V14.01,2013-03-14 00:57:00,
2013-03-13 18:58:00,47.4,19.0,30.43,WNW,284,15.0,21.0,32,0.00,,SKC,0.00,VWS V14.01,2013-03-14 00:58:00,
2013-03-13 18:59:00,47.4,19.0,30.43,WNW,284,15.0,21.0,32,0.00,,SKC,0.00,VWS V14.01,2013-03-14 00:59:00,
2013-03-13 19:00:00,47.4,19.0,30.43,North,360,19.0,21.0,32,0.00,,SKC,0.00,VWS V14.01,2013-03-14 01:00:00,
2013-03-13 19:01:00,47.3,19.0,30.43,North,360,22.0,24.0,32,0.00,,SKC,0.00,VWS V14.01,2013-03-14 01:01:00,
2013-03-13 19:02:00,47.3,19.0,30.43,North,360,15.0,22.0,32,0.00,,SKC,0.00,VWS V14.01,2013-03-14 01:02:00,
2013-03-13 19:03:00,47.3,19.7,30.43,WSW,239,22.0,22.0,33,0.00,,SKC,0.00,VWS V14.01,2013-03-14 01:03:00,
2013-03-13 19:04:00,47.3,19.7,30.43,WSW,239,22.0,22.0,33,0.00,,SKC,0.00,VWS V14.01,2013-03-14 01:04:00,
2013-03-13 19:05:00,47.2,19.6,30.43,North,360,23.0,32.0,33,0.00,,SKC,0.00,VWS V14.01,2013-03-14 01:05:00,
2013-03-13 19:06:00,47.2,19.6,30.43,WSW,240,20.0,30.0,33,0.00,,SKC,0.00,VWS V14.01,2013-03-14 01:06:00,
2013-03-13 19:07:00,47.2,19.6,30.44,WSW,246,23.0,31.0,33,0.00,,SKC,0.00,VWS V14.01,2013-03-14 01:07:00,
2013-03-13 19:08:00,47.3,19.0,30.43,West,271,23.0,23.0,32,0.00,,SKC,0.00,VWS V14.01,2013-03-14 01:08:00,
2013-03-13 19:09:00,47.3,19.0,30.43,WSW,257,22.0,28.0,32,0.00,,SKC,0.00,VWS V14.01,2013-03-14 01:09:00,
2013-03-13 19:10:00,47.3,19.0,30.43,WSW,257,22.0,28.0,32,0.00,,SKC,0.00,VWS V14.01,2013-03-14 01:10:00,
2013-03-13 19:11:00,47.3,19.7,30.43,North,360,16.0,21.0,33,0.00,,SKC,0.00,VWS V14.01,2013-03-14 01:11:00,
2013-03-13 19:12:00,47.3,19.7,30.44,West,274,11.0,20.0,33,0.00,,SKC,0.00,VWS V14.01,2013-03-14 01:12:00,
2013-03-13 19:13:00,47.3,19.7,30.44,WSW,237,15.0,21.0,33,0.00,,SKC,0.00,VWS V14.01,2013-03-14 01:13:00,
2013-03-13 19:14:00,47.2,19.6,30.44,SW,236,16.0,17.0,33,0.00,,SKC,0.00,VWS V14.01,2013-03-14 01:14:00,
2013-03-13 19:15:00,47.2,19.6,30.44,SW,236,16.0,17.0,33,0.00,,SKC,0.00,VWS V14.01,2013-03-14 01:15:00,
2013-03-13 19:16:00,47.2,19.6,30.44,West,259,11.0,18.0,33,0.00,,SKC,0.00,VWS V14.01,2013-03-14 01:16:00,
2013-03-13 19:17:00,47.1,19.5,30.44,North,360,14.0,19.0,33,0.00,,SKC,0.00,VWS V14.01,2013-03-14 01:17:00,
2013-03-13 19:18:00,47.1,19.5,30.44,SW,234,11.0,16.0,33,0.00,,SKC,0.00,VWS V14.01,2013-03-14 01:18:00,
2013-03-13 19:19:00,47.0,19.4,30.44,WSW,257,13.0,17.0,33,0.00,,SKC,0.00,VWS V14.01,2013-03-14 01:19:00,
2013-03-13 19:20:00,47.0,19.4,30.44,WSW,257,13.0,17.0,33,0.00,,SKC,0.00,VWS V14.01,2013-03-14 01:20:00,
2013-03-13 19:21:00,46.9,19.3,30.44,West,281,19.0,19.0,33,0.00,,SKC,0.00,VWS V14.01,2013-03-14 01:21:00,
2013-03-13 19:22:00,46.9,19.3,30.44,West,261,10.0,21.0,33,0.00,,SKC,0.00,VWS V14.01,2013-03-14 01:22:00,
2013-03-13 19:23:00,46.9,20.0,30.44,SW,220,15.0,15.0,34,0.00,,SKC,0.00,VWS V14.01,2013-03-14 01:23:00,
2013-03-13 19:24:00,46.9,19.3,30.44,WSW,250,7.0,15.0,33,0.00,,SKC,0.00,VWS V14.01,2013-03-14 01:24:00,
2013-03-13 19:25:00,46.9,19.3,30.44,WSW,250,7.0,15.0,33,0.00,,SKC,0.00,VWS V14.01,2013-03-14 01:25:00,
2013-03-13 19:26:00,46.8,19.9,30.44,West,270,14.0,24.0,34,0.00,,SKC,0.00,VWS V14.01,2013-03-14 01:26:00,
2013-03-13 19:27:00,46.8,19.9,30.44,West,273,13.0,15.0,34,0.00,,SKC,0.00,VWS V14.01,2013-03-14 01:27:00,
2013-03-13 19:28:00,46.8,19.9,30.44,West,273,13.0,17.0,34,0.00,,SKC,0.00,VWS V14.01,2013-03-14 01:28:00,
2013-03-13 19:29:00,46.7,19.8,30.44,North,360,15.0,21.0,34,0.00,,SKC,0.00,VWS V14.01,2013-03-14 01:29:00,
2013-03-13 19:30:00,46.7,19.8,30.44,North,360,15.0,21.0,34,0.00,,SKC,0.00,VWS V14.01,2013-03-14 01:30:00,
2013-03-13 19:31:00,46.6,20.4,30.44,WSW,248,10.0,14.0,35,0.00,,SKC,0.00,VWS V14.01,2013-03-14 01:31:00,
2013-03-13 19:32:00,46.6,19.8,30.44,North,360,12.0,14.0,34,0.00,,SKC,0.00,VWS V14.01,2013-03-14 01:32:00,
2013-03-13 19:33:00,46.5,20.3,30.44,SW,224,14.0,17.0,35,0.00,,SKC,0.00,VWS V14.01,2013-03-14 01:33:00,
2013-03-13 19:34:00,46.5,19.7,30.44,West,266,12.0,16.0,34,0.00,,SKC,0.00,VWS V14.01,2013-03-14 01:34:00,
2013-03-13 19:36:00,46.5,19.7,30.44,North,360,16.0,16.0,34,0.00,,SKC,0.00,VWS V14.01,2013-03-14 01:36:00,
2013-03-13 19:37:00,46.5,19.7,30.44,West,265,14.0,14.0,34,0.00,,SKC,0.00,VWS V14.01,2013-03-14 01:37:00,
2013-03-13 19:38:00,46.5,19.7,30.44,SW,220,15.0,18.0,34,0.00,,SKC,0.00,VWS V14.01,2013-03-14 01:38:00,
2013-03-13 19:39:00,46.5,19.7,30.44,WSW,244,12.0,20.0,34,0.00,,SKC,0.00,VWS V14.01,2013-03-14 01:39:00,
2013-03-13 19:40:00,46.5,20.3,30.43,WNW,296,22.0,22.0,35,0.00,,SKC,0.00,VWS V14.01,2013-03-14 01:40:00,
2013-03-13 19:42:00,46.5,19.7,30.44,WSW,244,14.0,22.0,34,0.00,,SKC,0.00,VWS V14.01,2013-03-14 01:42:00,
2013-03-13 19:43:00,46.5,20.3,30.43,WSW,237,15.0,22.0,35,0.00,,SKC,0.00,VWS V14.01,2013-03-14 01:43:00,
2013-03-13 19:44:00,46.4,20.2,30.43,North,360,13.0,15.0,35,0.00,,SKC,0.00,VWS V14.01,2013-03-14 01:44:00,
2013-03-13 19:45:00,46.4,19.6,30.43,West,266,12.0,20.0,34,0.00,,SKC,0.00,VWS V14.01,2013-03-14 01:45:00,
2013-03-13 19:47:00,46.4,20.2,30.43,West,271,21.0,21.0,35,0.00,,SKC,0.00,VWS V14.01,2013-03-14 01:47:00,
2013-03-13 19:48:00,46.4,19.6,30.43,West,262,14.0,17.0,34,0.00,,SKC,0.00,VWS V14.01,2013-03-14 01:48:00,
2013-03-13 19:49:00,46.4,19.6,30.43,WSW,249,11.0,14.0,34,0.00,,SKC,0.00,VWS V14.01,2013-03-14 01:49:00,
2013-03-13 19:50:00,46.4,20.2,30.43,WSW,247,11.0,16.0,35,0.00,,SKC,0.00,VWS V14.01,2013-03-14 01:50:00,
2013-03-13 19:51:00,46.3,20.2,30.43,WSW,250,14.0,18.0,35,0.00,,SKC,0.00,VWS V14.01,2013-03-14 01:51:00,
2013-03-13 19:52:00,46.3,20.2,30.43,WSW,250,14.0,18.0,35,0.00,,SKC,0.00,VWS V14.01,2013-03-14 01:52:00,
2013-03-13 19:53:00,46.2,19.4,30.43,WSW,240,21.0,25.0,34,0.00,,SKC,0.00,VWS V14.01,2013-03-14 01:53:00,
2013-03-13 19:54:00,46.2,20.1,30.43,SW,224,12.0,21.0,35,0.00,,SKC,0.00,VWS V14.01,2013-03-14 01:54:00,
2013-03-13 19:55:00,46.2,20.1,30.43,North,360,7.0,12.0,35,0.00,,SKC,0.00,VWS V14.01,2013-03-14 01:55:00,
2013-03-13 19:58:00,46.1,20.0,30.43,WSW,248,12.0,13.0,35,0.00,,SKC,0.00,VWS V14.01,2013-03-14 01:58:00,
2013-03-13 20:04:00,45.5,20.1,30.43,WSW,255,7.0,15.0,36,0.00,,SKC,0.00,VWS V14.01,2013-03-14 02:04:00,
2013-03-13 20:05:00,45.5,19.5,30.43,West,270,15.0,22.0,35,0.00,,SKC,0.00,VWS V14.01,2013-03-14 02:05:00,
2013-03-13 20:06:00,45.5,20.1,30.43,North,360,7.0,11.0,36,0.00,,SKC,0.00,VWS V14.01,2013-03-14 02:06:00,
2013-03-13 20:07:00,45.6,20.2,30.43,WNW,284,4.0,7.0,36,0.00,,SKC,0.00,VWS V14.01,2013-03-14 02:07:00,
2013-03-13 20:08:00,45.5,20.1,30.42,West,259,7.0,9.0,36,0.00,,SKC,0.00,VWS V14.01,2013-03-14 02:08:00,
2013-03-13 20:09:00,45.5,20.1,30.43,WNW,297,6.0,7.0,36,0.00,,SKC,0.00,VWS V14.01,2013-03-14 02:09:00,
2013-03-13 20:19:00,45.2,19.9,30.42,SW,232,13.0,14.0,36,0.00,,SKC,0.00,VWS V14.01,2013-03-14 02:19:00,
2013-03-13 20:24:00,45.2,20.5,30.42,West,279,8.0,13.0,37,0.00,,SKC,0.00,VWS V14.01,2013-03-14 02:24:00,
2013-03-13 20:29:00,45.1,20.4,30.43,West,279,3.0,6.0,37,0.00,,SKC,0.00,VWS V14.01,2013-03-14 02:29:00,
2013-03-13 20:35:00,45.1,21.0,30.43,West,272,1.0,4.0,38,0.00,,SKC,0.00,VWS V14.01,2013-03-14 02:35:00,
2013-03-13 20:41:00,45.2,21.1,30.43,West,279,0.0,2.0,38,0.00,,SKC,0.00,VWS V14.01,2013-03-14 02:41:00,
2013-03-13 20:46:00,45.2,20.5,30.43,West,277,5.0,10.0,37,0.00,,SKC,0.00,VWS V14.01,2013-03-14 02:46:00,
2013-03-13 20:51:00,45.7,21.6,30.43,WNW,302,1.0,3.0,38,0.00,,SKC,0.00,VWS V14.01,2013-03-14 02:51:00,
2013-03-13 20:56:00,46.1,21.9,30.42,West,266,6.0,9.0,38,0.00,,SKC,0.00,VWS V14.01,2013-03-14 02:56:00,
2013-03-13 21:01:00,46.3,22.1,30.42,WSW,254,10.0,10.0,38,0.00,,SKC,0.00,VWS V14.01,2013-03-14 03:01:00,
2013-03-13 21:07:00,46.5,21.6,30.42,West,263,5.0,7.0,37,0.00,,SKC,0.00,VWS V14.01,2013-03-14 03:07:00,
2013-03-13 21:12:00,46.5,22.3,30.42,West,275,5.0,5.0,38,0.00,,SKC,0.00,VWS V14.01,2013-03-14 03:12:00,
2013-03-13 21:17:00,46.4,22.2,30.42,WNW,293,5.0,5.0,38,0.00,,SKC,0.00,VWS V14.01,2013-03-14 03:17:00,
2013-03-13 21:22:00,46.3,22.7,30.42,West,273,6.0,14.0,39,0.00,,SKC,0.00,VWS V14.01,2013-03-14 03:22:00,
2013-03-13 21:27:00,46.6,22.4,30.43,WSW,247,3.0,4.0,38,0.00,,SKC,0.00,VWS V14.01,2013-03-14 03:27:00,
2013-03-13 21:32:00,46.5,22.3,30.43,WNW,290,1.0,3.0,38,0.00,,SKC,0.00,VWS V14.01,2013-03-14 03:32:00,
2013-03-13 21:38:00,46.3,22.7,30.43,West,263,13.0,13.0,39,0.00,,SKC,0.00,VWS V14.01,2013-03-14 03:38:00,
2013-03-13 21:43:00,46.4,22.8,30.43,WSW,256,7.0,13.0,39,0.00,,SKC,0.00,VWS V14.01,2013-03-14 03:43:00,
2013-03-13 21:49:00,46.9,22.6,30.43,North,360,17.0,17.0,38,0.00,,SKC,0.00,VWS V14.01,2013-03-14 03:49:00,
2013-03-13 21:54:00,47.1,22.2,30.43,West,266,18.0,18.0,37,0.00,,SKC,0.00,VWS V14.01,2013-03-14 03:54:00,
2013-03-13 21:59:00,47.1,22.2,30.44,SW,228,10.0,19.0,37,0.00,,SKC,0.00,VWS V14.01,2013-03-14 03:59:00,
2013-03-13 22:01:00,47.1,22.2,30.44,North,360,13.0,20.0,37,0.00,,SKC,0.00,VWS V14.01,2013-03-14 04:01:00,
2013-03-13 22:02:00,47.1,22.2,30.44,WSW,246,11.0,14.0,37,0.00,,SKC,0.00,VWS V14.01,2013-03-14 04:02:00,
2013-03-13 22:08:00,47.2,22.3,30.43,North,360,17.0,17.0,37,0.00,,SKC,0.00,VWS V14.01,2013-03-14 04:08:00,
2013-03-13 22:13:00,47.0,22.1,30.43,North,360,19.0,24.0,37,0.00,,SKC,0.00,VWS V14.01,2013-03-14 04:13:00,
2013-03-13 22:15:00,47.0,22.1,30.43,SW,232,15.0,24.0,37,0.00,,SKC,0.00,VWS V14.01,2013-03-14 04:15:00,
2013-03-13 22:21:00,47.1,22.2,30.43,North,360,12.0,16.0,37,0.00,,SKC,0.00,VWS V14.01,2013-03-14 04:21:00,
2013-03-13 22:26:00,47.0,22.1,30.43,North,360,12.0,16.0,37,0.00,,SKC,0.00,VWS V14.01,2013-03-14 04:26:00,
2013-03-13 22:31:00,46.9,22.0,30.43,WSW,243,13.0,19.0,37,0.00,,SKC,0.00,VWS V14.01,2013-03-14 04:31:00,
2013-03-13 22:36:00,47.0,22.1,30.43,North,360,10.0,11.0,37,0.00,,SKC,0.00,VWS V14.01,2013-03-14 04:36:00,
2013-03-13 22:42:00,47.0,22.1,30.44,North,360,18.0,22.0,37,0.00,,SKC,0.00,VWS V14.01,2013-03-14 04:42:00,
2013-03-13 22:47:00,47.0,22.1,30.43,West,263,24.0,32.0,37,0.00,,SKC,0.00,VWS V14.01,2013-03-14 04:47:00,
2013-03-13 22:53:00,47.1,21.5,30.44,West,273,16.0,28.0,36,0.00,,SKC,0.00,VWS V14.01,2013-03-14 04:53:00,
2013-03-13 22:58:00,47.2,21.6,30.43,SW,234,16.0,22.0,36,0.00,,SKC,0.00,VWS V14.01,2013-03-14 04:58:00,
2013-03-13 23:03:00,47.1,22.2,30.43,WSW,257,15.0,20.0,37,0.00,,SKC,0.00,VWS V14.01,2013-03-14 05:03:00,
2013-03-13 23:09:00,47.0,22.1,30.43,West,265,19.0,23.0,37,0.00,,SKC,0.00,VWS V14.01,2013-03-14 05:09:00,
2013-03-13 23:14:00,47.0,22.1,30.43,WSW,254,22.0,23.0,37,0.00,,SKC,0.00,VWS V14.01,2013-03-14 05:14:00,
2013-03-13 23:19:00,47.0,22.1,30.43,WSW,252,23.0,28.0,37,0.00,,SKC,0.00,VWS V14.01,2013-03-14 05:19:00,
2013-03-13 23:24:00,46.9,22.0,30.43,West,259,27.0,27.0,37,0.00,,SKC,0.00,VWS V14.01,2013-03-14 05:24:00,
2013-03-13 23:29:00,46.9,22.0,30.43,WSW,254,15.0,23.0,37,0.00,,SKC,0.00,VWS V14.01,2013-03-14 05:29:00,
2013-03-13 23:35:00,46.9,21.4,30.44,WSW,250,18.0,20.0,36,0.00,,SKC,0.00,VWS V14.01,2013-03-14 05:35:00,
2013-03-13 23:40:00,46.8,21.9,30.44,West,263,23.0,23.0,37,0.00,,SKC,0.00,VWS V14.01,2013-03-14 05:40:00,
2013-03-13 23:45:00,46.8,21.9,30.44,WSW,244,17.0,31.0,37,0.00,,SKC,0.00,VWS V14.01,2013-03-14 05:45:00,
2013-03-13 23:50:00,46.8,21.9,30.43,WSW,255,27.0,27.0,37,0.00,,SKC,0.00,VWS V14.01,2013-03-14 05:50:00,
2013-03-13 23:56:00,46.7,21.8,30.44,WSW,240,17.0,22.0,37,0.00,,SKC,0.00,VWS V14.01,2013-03-14 05:56:00,